<?xml version="1.0" encoding="UTF-8" standalone="no" ?>
<gpx xmlns="http://www.topografix.com/GPX/1/1" xmlns:xsi="http://www.w3.org/2001/XMLSchema-instance" xsi:schemaLocation="http://www.topografix.com/GPX/1/1 http://www.topografix.com/GPX/1/1/gpx.xsd" version="1.1" creator="VisuGPX - https://www.visugpx.com">
  <metadata>
    <name>Ile St-Pierre</name>
  </metadata>
  <trk>
    <name><![CDATA[Ile St-Pierre_1]]></name>
    <trkseg>
      <trkpt lat="47.04846" lon="7.0644">
        <ele>431.33</ele>
        <time>2020-10-08T08:25:00.000Z</time>
      </trkpt>
      <trkpt lat="47.04851" lon="7.06461">
        <ele>431.5</ele>
        <time>2020-10-08T08:25:17.539Z</time>
      </trkpt>
      <trkpt lat="47.04862" lon="7.06501">
        <ele>431.98</ele>
        <time>2020-10-08T08:25:53.422Z</time>
      </trkpt>
      <trkpt lat="47.04853" lon="7.06498">
        <ele>431.95</ele>
        <time>2020-10-08T08:26:02.549Z</time>
      </trkpt>
      <trkpt lat="47.04844" lon="7.06494">
        <ele>431.89</ele>
        <time>2020-10-08T08:26:11.443Z</time>
      </trkpt>
      <trkpt lat="47.04843" lon="7.06494">
        <ele>431.89</ele>
        <time>2020-10-08T08:26:12.481Z</time>
      </trkpt>
      <trkpt lat="47.04843" lon="7.06493">
        <ele>431.89</ele>
        <time>2020-10-08T08:26:13.189Z</time>
      </trkpt>
      <trkpt lat="47.04833" lon="7.06488">
        <ele>431.88</ele>
        <time>2020-10-08T08:26:24.000Z</time>
      </trkpt>
      <trkpt lat="47.0482" lon="7.06479">
        <ele>431.79</ele>
        <time>2020-10-08T08:26:37.617Z</time>
      </trkpt>
      <trkpt lat="47.04803" lon="7.06463">
        <ele>431.66</ele>
        <time>2020-10-08T08:26:56.703Z</time>
      </trkpt>
      <trkpt lat="47.04789" lon="7.06449">
        <ele>431.48</ele>
        <time>2020-10-08T08:27:02.696Z</time>
      </trkpt>
      <trkpt lat="47.04781" lon="7.06441">
        <ele>431.48</ele>
        <time>2020-10-08T08:27:12.747Z</time>
      </trkpt>
      <trkpt lat="47.04752" lon="7.06415">
        <ele>431.82</ele>
        <time>2020-10-08T08:27:51.590Z</time>
      </trkpt>
      <trkpt lat="47.04743" lon="7.06427">
        <ele>433.61</ele>
        <time>2020-10-08T08:28:40.285Z</time>
      </trkpt>
      <trkpt lat="47.04743" lon="7.06427">
        <ele>433.61</ele>
        <time>2020-10-08T08:28:40.285Z</time>
      </trkpt>
      <trkpt lat="47.04655" lon="7.06547">
        <ele>433.61</ele>
        <time>2020-10-08T08:30:45.003Z</time>
      </trkpt>
      <trkpt lat="47.04655" lon="7.06548">
        <ele>433.61</ele>
        <time>2020-10-08T08:30:45.711Z</time>
      </trkpt>
      <trkpt lat="47.04655" lon="7.06548">
        <ele>435.4</ele>
        <time>2020-10-08T08:30:45.711Z</time>
      </trkpt>
      <trkpt lat="47.04631" lon="7.06582">
        <ele>436.33</ele>
        <time>2020-10-08T08:31:32.222Z</time>
      </trkpt>
      <trkpt lat="47.04618" lon="7.06598">
        <ele>436.93</ele>
        <time>2020-10-08T08:31:58.277Z</time>
      </trkpt>
      <trkpt lat="47.04565" lon="7.06671">
        <ele>437.18</ele>
        <time>2020-10-08T08:33:16.198Z</time>
      </trkpt>
      <trkpt lat="47.04565" lon="7.06671">
        <ele>437.18</ele>
        <time>2020-10-08T08:33:16.198Z</time>
      </trkpt>
      <trkpt lat="47.0453" lon="7.06719">
        <ele>437.44</ele>
        <time>2020-10-08T08:34:08.536Z</time>
      </trkpt>
      <trkpt lat="47.04515" lon="7.0674">
        <ele>436.94</ele>
        <time>2020-10-08T08:34:14.763Z</time>
      </trkpt>
      <trkpt lat="47.04485" lon="7.06781">
        <ele>436.54</ele>
        <time>2020-10-08T08:34:29.434Z</time>
      </trkpt>
      <trkpt lat="47.04477" lon="7.06792">
        <ele>436.14</ele>
        <time>2020-10-08T08:34:32.327Z</time>
      </trkpt>
      <trkpt lat="47.04441" lon="7.06841">
        <ele>435.43</ele>
        <time>2020-10-08T08:34:48.863Z</time>
      </trkpt>
      <trkpt lat="47.04438" lon="7.06845">
        <ele>434.72</ele>
        <time>2020-10-08T08:34:49.763Z</time>
      </trkpt>
      <trkpt lat="47.04419" lon="7.06871">
        <ele>434.15</ele>
        <time>2020-10-08T08:34:57.761Z</time>
      </trkpt>
      <trkpt lat="47.044" lon="7.06898">
        <ele>433.53</ele>
        <time>2020-10-08T08:35:05.766Z</time>
      </trkpt>
      <trkpt lat="47.044" lon="7.06898">
        <ele>433.53</ele>
        <time>2020-10-08T08:35:05.766Z</time>
      </trkpt>
      <trkpt lat="47.04389" lon="7.06913">
        <ele>432.91</ele>
        <time>2020-10-08T08:35:09.550Z</time>
      </trkpt>
      <trkpt lat="47.04373" lon="7.06935">
        <ele>432.55</ele>
        <time>2020-10-08T08:35:16.757Z</time>
      </trkpt>
      <trkpt lat="47.04362" lon="7.06951">
        <ele>432.16</ele>
        <time>2020-10-08T08:35:21.354Z</time>
      </trkpt>
      <trkpt lat="47.04361" lon="7.06951">
        <ele>431.77</ele>
        <time>2020-10-08T08:35:21.576Z</time>
      </trkpt>
      <trkpt lat="47.04349" lon="7.06969">
        <ele>431.79</ele>
        <time>2020-10-08T08:35:39.585Z</time>
      </trkpt>
      <trkpt lat="47.04324" lon="7.07002">
        <ele>431.42</ele>
        <time>2020-10-08T08:35:51.422Z</time>
      </trkpt>
      <trkpt lat="47.04311" lon="7.07018">
        <ele>431.42</ele>
        <time>2020-10-08T08:36:09.038Z</time>
      </trkpt>
      <trkpt lat="47.043" lon="7.07032">
        <ele>431.52</ele>
        <time>2020-10-08T08:36:25.170Z</time>
      </trkpt>
      <trkpt lat="47.04298" lon="7.07035">
        <ele>431.62</ele>
        <time>2020-10-08T08:36:29.538Z</time>
      </trkpt>
      <trkpt lat="47.04285" lon="7.07049">
        <ele>431.66</ele>
        <time>2020-10-08T08:36:46.669Z</time>
      </trkpt>
      <trkpt lat="47.0427" lon="7.07066">
        <ele>431.9</ele>
        <time>2020-10-08T08:37:08.929Z</time>
      </trkpt>
      <trkpt lat="47.04254" lon="7.07082">
        <ele>431.81</ele>
        <time>2020-10-08T08:37:27.695Z</time>
      </trkpt>
      <trkpt lat="47.04241" lon="7.07095">
        <ele>431.87</ele>
        <time>2020-10-08T08:37:44.619Z</time>
      </trkpt>
      <trkpt lat="47.04243" lon="7.07099">
        <ele>431.87</ele>
        <time>2020-10-08T08:37:48.129Z</time>
      </trkpt>
      <trkpt lat="47.04243" lon="7.071">
        <ele>431.87</ele>
        <time>2020-10-08T08:37:48.837Z</time>
      </trkpt>
      <trkpt lat="47.04242" lon="7.07103">
        <ele>432.15</ele>
        <time>2020-10-08T08:37:56.759Z</time>
      </trkpt>
      <trkpt lat="47.04236" lon="7.07109">
        <ele>431.02</ele>
        <time>2020-10-08T08:37:58.372Z</time>
      </trkpt>
      <trkpt lat="47.0423" lon="7.07113">
        <ele>432.11</ele>
        <time>2020-10-08T08:38:24.763Z</time>
      </trkpt>
      <trkpt lat="47.04226" lon="7.07116">
        <ele>432.21</ele>
        <time>2020-10-08T08:38:30.622Z</time>
      </trkpt>
      <trkpt lat="47.04225" lon="7.0712">
        <ele>432.04</ele>
        <time>2020-10-08T08:38:31.252Z</time>
      </trkpt>
      <trkpt lat="47.04225" lon="7.07124">
        <ele>431.81</ele>
        <time>2020-10-08T08:38:31.857Z</time>
      </trkpt>
      <trkpt lat="47.04226" lon="7.07128">
        <ele>431.81</ele>
        <time>2020-10-08T08:38:34.872Z</time>
      </trkpt>
      <trkpt lat="47.04232" lon="7.07136">
        <ele>431.7</ele>
        <time>2020-10-08T08:38:37.633Z</time>
      </trkpt>
      <trkpt lat="47.0424" lon="7.07151">
        <ele>431.56</ele>
        <time>2020-10-08T08:38:42.215Z</time>
      </trkpt>
      <trkpt lat="47.04253" lon="7.07174">
        <ele>431.24</ele>
        <time>2020-10-08T08:38:48.966Z</time>
      </trkpt>
      <trkpt lat="47.04261" lon="7.0719">
        <ele>431.41</ele>
        <time>2020-10-08T08:39:04.834Z</time>
      </trkpt>
      <trkpt lat="47.04278" lon="7.07227">
        <ele>431.25</ele>
        <time>2020-10-08T08:39:34.051Z</time>
      </trkpt>
      <trkpt lat="47.04278" lon="7.07226">
        <ele>431.25</ele>
        <time>2020-10-08T08:39:34.758Z</time>
      </trkpt>
      <trkpt lat="47.04293" lon="7.07258">
        <ele>431.09</ele>
        <time>2020-10-08T08:39:59.908Z</time>
      </trkpt>
      <trkpt lat="47.04313" lon="7.07301">
        <ele>431.14</ele>
        <time>2020-10-08T08:40:37.224Z</time>
      </trkpt>
      <trkpt lat="47.04351" lon="7.07384">
        <ele>431.52</ele>
        <time>2020-10-08T08:41:51.778Z</time>
      </trkpt>
      <trkpt lat="47.04382" lon="7.07449">
        <ele>431.37</ele>
        <time>2020-10-08T08:42:45.620Z</time>
      </trkpt>
      <trkpt lat="47.04398" lon="7.07484">
        <ele>431.47</ele>
        <time>2020-10-08T08:43:16.421Z</time>
      </trkpt>
      <trkpt lat="47.04407" lon="7.07502">
        <ele>431.47</ele>
        <time>2020-10-08T08:43:32.216Z</time>
      </trkpt>
      <trkpt lat="47.04418" lon="7.07525">
        <ele>431.52</ele>
        <time>2020-10-08T08:43:52.584Z</time>
      </trkpt>
      <trkpt lat="47.04426" lon="7.0754">
        <ele>431.72</ele>
        <time>2020-10-08T08:44:08.275Z</time>
      </trkpt>
      <trkpt lat="47.04438" lon="7.07564">
        <ele>431.29</ele>
        <time>2020-10-08T08:44:14.573Z</time>
      </trkpt>
      <trkpt lat="47.04455" lon="7.07598">
        <ele>431.23</ele>
        <time>2020-10-08T08:44:43.484Z</time>
      </trkpt>
      <trkpt lat="47.04492" lon="7.07671">
        <ele>431.09</ele>
        <time>2020-10-08T08:45:45.698Z</time>
      </trkpt>
      <trkpt lat="47.04524" lon="7.07732">
        <ele>430.73</ele>
        <time>2020-10-08T08:46:34.979Z</time>
      </trkpt>
      <trkpt lat="47.04577" lon="7.07836">
        <ele>430.37</ele>
        <time>2020-10-08T08:48:01.467Z</time>
      </trkpt>
      <trkpt lat="47.04593" lon="7.07868">
        <ele>430.68</ele>
        <time>2020-10-08T08:48:32.841Z</time>
      </trkpt>
      <trkpt lat="47.04602" lon="7.07886">
        <ele>430.41</ele>
        <time>2020-10-08T08:48:37.761Z</time>
      </trkpt>
      <trkpt lat="47.04605" lon="7.07895">
        <ele>430.73</ele>
        <time>2020-10-08T08:48:49.906Z</time>
      </trkpt>
      <trkpt lat="47.04607" lon="7.079">
        <ele>430.74</ele>
        <time>2020-10-08T08:48:54.105Z</time>
      </trkpt>
      <trkpt lat="47.04608" lon="7.07907">
        <ele>430.75</ele>
        <time>2020-10-08T08:48:59.262Z</time>
      </trkpt>
      <trkpt lat="47.046" lon="7.07922">
        <ele>430.85</ele>
        <time>2020-10-08T08:49:13.761Z</time>
      </trkpt>
      <trkpt lat="47.04567" lon="7.07975">
        <ele>430.98</ele>
        <time>2020-10-08T08:50:05.821Z</time>
      </trkpt>
      <trkpt lat="47.04551" lon="7.08">
        <ele>430.83</ele>
        <time>2020-10-08T08:50:27.913Z</time>
      </trkpt>
      <trkpt lat="47.04532" lon="7.08032">
        <ele>431.05</ele>
        <time>2020-10-08T08:51:00.190Z</time>
      </trkpt>
      <trkpt lat="47.04519" lon="7.08052">
        <ele>431.01</ele>
        <time>2020-10-08T08:51:19.128Z</time>
      </trkpt>
      <trkpt lat="47.04495" lon="7.08092">
        <ele>430.97</ele>
        <time>2020-10-08T08:51:56.208Z</time>
      </trkpt>
      <trkpt lat="47.04486" lon="7.08107">
        <ele>431.08</ele>
        <time>2020-10-08T08:52:11.478Z</time>
      </trkpt>
      <trkpt lat="47.0448" lon="7.08117">
        <ele>431.14</ele>
        <time>2020-10-08T08:52:21.512Z</time>
      </trkpt>
      <trkpt lat="47.04475" lon="7.08123">
        <ele>431.23</ele>
        <time>2020-10-08T08:52:29.198Z</time>
      </trkpt>
      <trkpt lat="47.0447" lon="7.08128">
        <ele>431.11</ele>
        <time>2020-10-08T08:52:31.107Z</time>
      </trkpt>
      <trkpt lat="47.04472" lon="7.08135">
        <ele>431.04</ele>
        <time>2020-10-08T08:52:32.870Z</time>
      </trkpt>
      <trkpt lat="47.04475" lon="7.08141">
        <ele>430.73</ele>
        <time>2020-10-08T08:52:33.947Z</time>
      </trkpt>
      <trkpt lat="47.04479" lon="7.08151">
        <ele>430.69</ele>
        <time>2020-10-08T08:52:41.560Z</time>
      </trkpt>
      <trkpt lat="47.04484" lon="7.08164">
        <ele>430.79</ele>
        <time>2020-10-08T08:52:53.166Z</time>
      </trkpt>
      <trkpt lat="47.04499" lon="7.08205">
        <ele>430.46</ele>
        <time>2020-10-08T08:53:04.417Z</time>
      </trkpt>
      <trkpt lat="47.04508" lon="7.08227">
        <ele>430.24</ele>
        <time>2020-10-08T08:53:10.448Z</time>
      </trkpt>
      <trkpt lat="47.04516" lon="7.08249">
        <ele>430.19</ele>
        <time>2020-10-08T08:53:27.329Z</time>
      </trkpt>
      <trkpt lat="47.04525" lon="7.08273">
        <ele>430.14</ele>
        <time>2020-10-08T08:53:45.946Z</time>
      </trkpt>
      <trkpt lat="47.04543" lon="7.08327">
        <ele>430.12</ele>
        <time>2020-10-08T08:54:28.160Z</time>
      </trkpt>
      <trkpt lat="47.04549" lon="7.08346">
        <ele>430.15</ele>
        <time>2020-10-08T08:54:43.266Z</time>
      </trkpt>
      <trkpt lat="47.04555" lon="7.08364">
        <ele>430.07</ele>
        <time>2020-10-08T08:54:56.275Z</time>
      </trkpt>
      <trkpt lat="47.0456" lon="7.08382">
        <ele>429.61</ele>
        <time>2020-10-08T08:54:59.831Z</time>
      </trkpt>
      <trkpt lat="47.04564" lon="7.08398">
        <ele>429.66</ele>
        <time>2020-10-08T08:55:12.384Z</time>
      </trkpt>
      <trkpt lat="47.04568" lon="7.0842">
        <ele>429.78</ele>
        <time>2020-10-08T08:55:29.721Z</time>
      </trkpt>
      <trkpt lat="47.0457" lon="7.08433">
        <ele>429.93</ele>
        <time>2020-10-08T08:55:40.830Z</time>
      </trkpt>
      <trkpt lat="47.04574" lon="7.08443">
        <ele>429.78</ele>
        <time>2020-10-08T08:55:43.348Z</time>
      </trkpt>
      <trkpt lat="47.04581" lon="7.08459">
        <ele>430.06</ele>
        <time>2020-10-08T08:56:00.120Z</time>
      </trkpt>
      <trkpt lat="47.0459" lon="7.08479">
        <ele>429.79</ele>
        <time>2020-10-08T08:56:05.481Z</time>
      </trkpt>
      <trkpt lat="47.04594" lon="7.08482">
        <ele>429.9</ele>
        <time>2020-10-08T08:56:11.493Z</time>
      </trkpt>
      <trkpt lat="47.04603" lon="7.08488">
        <ele>429.74</ele>
        <time>2020-10-08T08:56:14.752Z</time>
      </trkpt>
      <trkpt lat="47.04608" lon="7.08493">
        <ele>429.66</ele>
        <time>2020-10-08T08:56:16.821Z</time>
      </trkpt>
      <trkpt lat="47.04609" lon="7.08497">
        <ele>429.85</ele>
        <time>2020-10-08T08:56:22.685Z</time>
      </trkpt>
      <trkpt lat="47.04609" lon="7.08502">
        <ele>429.74</ele>
        <time>2020-10-08T08:56:23.623Z</time>
      </trkpt>
      <trkpt lat="47.04608" lon="7.08512">
        <ele>430.08</ele>
        <time>2020-10-08T08:56:36.075Z</time>
      </trkpt>
      <trkpt lat="47.04605" lon="7.08522">
        <ele>429.94</ele>
        <time>2020-10-08T08:56:38.452Z</time>
      </trkpt>
      <trkpt lat="47.04601" lon="7.08537">
        <ele>429.85</ele>
        <time>2020-10-08T08:56:42.464Z</time>
      </trkpt>
      <trkpt lat="47.04596" lon="7.08545">
        <ele>429.88</ele>
        <time>2020-10-08T08:56:50.440Z</time>
      </trkpt>
      <trkpt lat="47.04589" lon="7.08555">
        <ele>430.14</ele>
        <time>2020-10-08T08:57:03.852Z</time>
      </trkpt>
      <trkpt lat="47.04581" lon="7.08565">
        <ele>430.41</ele>
        <time>2020-10-08T08:57:18.121Z</time>
      </trkpt>
      <trkpt lat="47.04577" lon="7.08572">
        <ele>430.31</ele>
        <time>2020-10-08T08:57:20.176Z</time>
      </trkpt>
      <trkpt lat="47.04573" lon="7.08581">
        <ele>430.21</ele>
        <time>2020-10-08T08:57:22.666Z</time>
      </trkpt>
      <trkpt lat="47.0457" lon="7.08591">
        <ele>430.31</ele>
        <time>2020-10-08T08:57:31.481Z</time>
      </trkpt>
      <trkpt lat="47.04568" lon="7.08607">
        <ele>430.16</ele>
        <time>2020-10-08T08:57:35.258Z</time>
      </trkpt>
      <trkpt lat="47.04565" lon="7.08621">
        <ele>430.32</ele>
        <time>2020-10-08T08:57:47.423Z</time>
      </trkpt>
      <trkpt lat="47.04563" lon="7.08632">
        <ele>430.51</ele>
        <time>2020-10-08T08:57:57.807Z</time>
      </trkpt>
      <trkpt lat="47.04562" lon="7.08638">
        <ele>430.7</ele>
        <time>2020-10-08T08:58:05.213Z</time>
      </trkpt>
      <trkpt lat="47.04562" lon="7.08645">
        <ele>430.85</ele>
        <time>2020-10-08T08:58:12.169Z</time>
      </trkpt>
      <trkpt lat="47.04564" lon="7.08651">
        <ele>430.75</ele>
        <time>2020-10-08T08:58:13.570Z</time>
      </trkpt>
      <trkpt lat="47.0457" lon="7.08661">
        <ele>430.97</ele>
        <time>2020-10-08T08:58:25.685Z</time>
      </trkpt>
      <trkpt lat="47.04572" lon="7.08668">
        <ele>430.83</ele>
        <time>2020-10-08T08:58:27.189Z</time>
      </trkpt>
      <trkpt lat="47.04573" lon="7.08676">
        <ele>430.91</ele>
        <time>2020-10-08T08:58:33.820Z</time>
      </trkpt>
      <trkpt lat="47.04574" lon="7.0869">
        <ele>430.82</ele>
        <time>2020-10-08T08:58:37.270Z</time>
      </trkpt>
      <trkpt lat="47.04573" lon="7.08715">
        <ele>430.79</ele>
        <time>2020-10-08T08:58:54.523Z</time>
      </trkpt>
      <trkpt lat="47.04572" lon="7.08736">
        <ele>430.83</ele>
        <time>2020-10-08T08:59:09.806Z</time>
      </trkpt>
      <trkpt lat="47.0457" lon="7.08751">
        <ele>430.74</ele>
        <time>2020-10-08T08:59:13.590Z</time>
      </trkpt>
      <trkpt lat="47.04569" lon="7.08758">
        <ele>430.61</ele>
        <time>2020-10-08T08:59:15.013Z</time>
      </trkpt>
      <trkpt lat="47.04566" lon="7.08767">
        <ele>430.75</ele>
        <time>2020-10-08T08:59:23.740Z</time>
      </trkpt>
      <trkpt lat="47.0456" lon="7.08779">
        <ele>430.8</ele>
        <time>2020-10-08T08:59:34.768Z</time>
      </trkpt>
      <trkpt lat="47.0455" lon="7.088">
        <ele>430.84</ele>
        <time>2020-10-08T08:59:53.282Z</time>
      </trkpt>
      <trkpt lat="47.04544" lon="7.08815">
        <ele>430.78</ele>
        <time>2020-10-08T09:00:04.702Z</time>
      </trkpt>
      <trkpt lat="47.04541" lon="7.08827">
        <ele>430.86</ele>
        <time>2020-10-08T09:00:14.576Z</time>
      </trkpt>
      <trkpt lat="47.04539" lon="7.0884">
        <ele>430.69</ele>
        <time>2020-10-08T09:00:17.479Z</time>
      </trkpt>
      <trkpt lat="47.04539" lon="7.08854">
        <ele>430.64</ele>
        <time>2020-10-08T09:00:26.647Z</time>
      </trkpt>
      <trkpt lat="47.04541" lon="7.08874">
        <ele>430.42</ele>
        <time>2020-10-08T09:00:31.200Z</time>
      </trkpt>
      <trkpt lat="47.04543" lon="7.08898">
        <ele>430.61</ele>
        <time>2020-10-08T09:00:50.326Z</time>
      </trkpt>
      <trkpt lat="47.04544" lon="7.08912">
        <ele>430.51</ele>
        <time>2020-10-08T09:00:53.728Z</time>
      </trkpt>
      <trkpt lat="47.04547" lon="7.08939">
        <ele>430.3</ele>
        <time>2020-10-08T09:01:00.268Z</time>
      </trkpt>
      <trkpt lat="47.0455" lon="7.08978">
        <ele>430.35</ele>
        <time>2020-10-08T09:01:28.519Z</time>
      </trkpt>
      <trkpt lat="47.04552" lon="7.08992">
        <ele>430.39</ele>
        <time>2020-10-08T09:01:39.034Z</time>
      </trkpt>
      <trkpt lat="47.04552" lon="7.08991">
        <ele>430.39</ele>
        <time>2020-10-08T09:01:39.741Z</time>
      </trkpt>
      <trkpt lat="47.04557" lon="7.09044">
        <ele>430.43</ele>
        <time>2020-10-08T09:02:17.979Z</time>
      </trkpt>
      <trkpt lat="47.04563" lon="7.09108">
        <ele>430.5</ele>
        <time>2020-10-08T09:03:04.360Z</time>
      </trkpt>
      <trkpt lat="47.04565" lon="7.0913">
        <ele>430.34</ele>
        <time>2020-10-08T09:03:09.714Z</time>
      </trkpt>
      <trkpt lat="47.04563" lon="7.09137">
        <ele>430.39</ele>
        <time>2020-10-08T09:03:15.605Z</time>
      </trkpt>
      <trkpt lat="47.04561" lon="7.09143">
        <ele>430.47</ele>
        <time>2020-10-08T09:03:21.238Z</time>
      </trkpt>
      <trkpt lat="47.04559" lon="7.09151">
        <ele>430.51</ele>
        <time>2020-10-08T09:03:27.672Z</time>
      </trkpt>
      <trkpt lat="47.04558" lon="7.09159">
        <ele>430.56</ele>
        <time>2020-10-08T09:03:33.945Z</time>
      </trkpt>
      <trkpt lat="47.04558" lon="7.09166">
        <ele>430.57</ele>
        <time>2020-10-08T09:03:38.994Z</time>
      </trkpt>
      <trkpt lat="47.04558" lon="7.09178">
        <ele>430.65</ele>
        <time>2020-10-08T09:03:48.320Z</time>
      </trkpt>
      <trkpt lat="47.0456" lon="7.09202">
        <ele>430.77</ele>
        <time>2020-10-08T09:04:06.648Z</time>
      </trkpt>
      <trkpt lat="47.0456" lon="7.09211">
        <ele>430.89</ele>
        <time>2020-10-08T09:04:14.406Z</time>
      </trkpt>
      <trkpt lat="47.04559" lon="7.0922">
        <ele>430.91</ele>
        <time>2020-10-08T09:04:21.053Z</time>
      </trkpt>
      <trkpt lat="47.04558" lon="7.09229">
        <ele>430.95</ele>
        <time>2020-10-08T09:04:27.909Z</time>
      </trkpt>
      <trkpt lat="47.04541" lon="7.09295">
        <ele>431.36</ele>
        <time>2020-10-08T09:05:22.056Z</time>
      </trkpt>
      <trkpt lat="47.04537" lon="7.09315">
        <ele>431.39</ele>
        <time>2020-10-08T09:05:37.094Z</time>
      </trkpt>
      <trkpt lat="47.0456" lon="7.09316">
        <ele>431.11</ele>
        <time>2020-10-08T09:05:45.072Z</time>
      </trkpt>
      <trkpt lat="47.04592" lon="7.09318">
        <ele>430.86</ele>
        <time>2020-10-08T09:05:56.840Z</time>
      </trkpt>
      <trkpt lat="47.04594" lon="7.09319">
        <ele>430.86</ele>
        <time>2020-10-08T09:05:59.034Z</time>
      </trkpt>
      <trkpt lat="47.04596" lon="7.09325">
        <ele>430.86</ele>
        <time>2020-10-08T09:06:03.760Z</time>
      </trkpt>
      <trkpt lat="47.046" lon="7.09356">
        <ele>430.09</ele>
        <time>2020-10-08T09:06:09.470Z</time>
      </trkpt>
      <trkpt lat="47.04603" lon="7.09375">
        <ele>430.02</ele>
        <time>2020-10-08T09:06:22.238Z</time>
      </trkpt>
      <trkpt lat="47.04611" lon="7.09415">
        <ele>429.98</ele>
        <time>2020-10-08T09:06:51.107Z</time>
      </trkpt>
      <trkpt lat="47.04612" lon="7.09429">
        <ele>429.82</ele>
        <time>2020-10-08T09:06:54.250Z</time>
      </trkpt>
      <trkpt lat="47.04613" lon="7.09435">
        <ele>430.01</ele>
        <time>2020-10-08T09:07:01.655Z</time>
      </trkpt>
      <trkpt lat="47.04615" lon="7.09442">
        <ele>429.91</ele>
        <time>2020-10-08T09:07:03.297Z</time>
      </trkpt>
      <trkpt lat="47.04617" lon="7.09453">
        <ele>429.88</ele>
        <time>2020-10-08T09:07:10.901Z</time>
      </trkpt>
      <trkpt lat="47.04623" lon="7.09485">
        <ele>430.11</ele>
        <time>2020-10-08T09:07:36.793Z</time>
      </trkpt>
      <trkpt lat="47.04625" lon="7.09492">
        <ele>429.97</ele>
        <time>2020-10-08T09:07:38.297Z</time>
      </trkpt>
      <trkpt lat="47.04628" lon="7.095">
        <ele>429.79</ele>
        <time>2020-10-08T09:07:40.071Z</time>
      </trkpt>
      <trkpt lat="47.04629" lon="7.09507">
        <ele>429.92</ele>
        <time>2020-10-08T09:07:46.767Z</time>
      </trkpt>
      <trkpt lat="47.04631" lon="7.09519">
        <ele>430.01</ele>
        <time>2020-10-08T09:07:56.455Z</time>
      </trkpt>
      <trkpt lat="47.04632" lon="7.09527">
        <ele>430.08</ele>
        <time>2020-10-08T09:08:02.962Z</time>
      </trkpt>
      <trkpt lat="47.04632" lon="7.09526">
        <ele>430.08</ele>
        <time>2020-10-08T09:08:03.670Z</time>
      </trkpt>
      <trkpt lat="47.04632" lon="7.09528">
        <ele>430.15</ele>
        <time>2020-10-08T09:08:06.166Z</time>
      </trkpt>
      <trkpt lat="47.04642" lon="7.09568">
        <ele>429.9</ele>
        <time>2020-10-08T09:08:16.717Z</time>
      </trkpt>
      <trkpt lat="47.04645" lon="7.09578">
        <ele>430.01</ele>
        <time>2020-10-08T09:08:25.657Z</time>
      </trkpt>
      <trkpt lat="47.04647" lon="7.09585">
        <ele>429.85</ele>
        <time>2020-10-08T09:08:27.101Z</time>
      </trkpt>
      <trkpt lat="47.04648" lon="7.0959">
        <ele>430.07</ele>
        <time>2020-10-08T09:08:34.095Z</time>
      </trkpt>
      <trkpt lat="47.04649" lon="7.09597">
        <ele>430.12</ele>
        <time>2020-10-08T09:08:39.680Z</time>
      </trkpt>
      <trkpt lat="47.0465" lon="7.09607">
        <ele>429.77</ele>
        <time>2020-10-08T09:08:41.272Z</time>
      </trkpt>
      <trkpt lat="47.04652" lon="7.09624">
        <ele>429.98</ele>
        <time>2020-10-08T09:08:55.865Z</time>
      </trkpt>
      <trkpt lat="47.04653" lon="7.09636">
        <ele>430.03</ele>
        <time>2020-10-08T09:09:04.921Z</time>
      </trkpt>
      <trkpt lat="47.04656" lon="7.09653">
        <ele>430.23</ele>
        <time>2020-10-08T09:09:19.591Z</time>
      </trkpt>
      <trkpt lat="47.04659" lon="7.09669">
        <ele>430.33</ele>
        <time>2020-10-08T09:09:32.366Z</time>
      </trkpt>
      <trkpt lat="47.0466" lon="7.0968">
        <ele>430.33</ele>
        <time>2020-10-08T09:09:40.217Z</time>
      </trkpt>
      <trkpt lat="47.0466" lon="7.09688">
        <ele>430.44</ele>
        <time>2020-10-08T09:09:47.160Z</time>
      </trkpt>
      <trkpt lat="47.0466" lon="7.09693">
        <ele>430.42</ele>
        <time>2020-10-08T09:09:50.405Z</time>
      </trkpt>
      <trkpt lat="47.04658" lon="7.09701">
        <ele>430.25</ele>
        <time>2020-10-08T09:09:52.054Z</time>
      </trkpt>
      <trkpt lat="47.04657" lon="7.09711">
        <ele>430.51</ele>
        <time>2020-10-08T09:10:02.984Z</time>
      </trkpt>
      <trkpt lat="47.04656" lon="7.09725">
        <ele>430.64</ele>
        <time>2020-10-08T09:10:14.354Z</time>
      </trkpt>
      <trkpt lat="47.04654" lon="7.09741">
        <ele>430.82</ele>
        <time>2020-10-08T09:10:27.874Z</time>
      </trkpt>
      <trkpt lat="47.04652" lon="7.09756">
        <ele>430.68</ele>
        <time>2020-10-08T09:10:31.426Z</time>
      </trkpt>
      <trkpt lat="47.04651" lon="7.09768">
        <ele>430.81</ele>
        <time>2020-10-08T09:10:41.424Z</time>
      </trkpt>
      <trkpt lat="47.0465" lon="7.09779">
        <ele>430.69</ele>
        <time>2020-10-08T09:10:43.927Z</time>
      </trkpt>
      <trkpt lat="47.04648" lon="7.09797">
        <ele>430.61</ele>
        <time>2020-10-08T09:10:55.671Z</time>
      </trkpt>
      <trkpt lat="47.04649" lon="7.098">
        <ele>430.64</ele>
        <time>2020-10-08T09:10:58.358Z</time>
      </trkpt>
      <trkpt lat="47.04649" lon="7.09813">
        <ele>430.67</ele>
        <time>2020-10-08T09:11:07.849Z</time>
      </trkpt>
      <trkpt lat="47.04649" lon="7.09818">
        <ele>430.53</ele>
        <time>2020-10-08T09:11:08.709Z</time>
      </trkpt>
      <trkpt lat="47.04646" lon="7.09826">
        <ele>430.49</ele>
        <time>2020-10-08T09:11:14.590Z</time>
      </trkpt>
      <trkpt lat="47.04639" lon="7.09845">
        <ele>430.75</ele>
        <time>2020-10-08T09:11:32.821Z</time>
      </trkpt>
      <trkpt lat="47.04632" lon="7.09847">
        <ele>430.57</ele>
        <time>2020-10-08T09:11:34.937Z</time>
      </trkpt>
      <trkpt lat="47.0461" lon="7.09855">
        <ele>430.58</ele>
        <time>2020-10-08T09:11:58.564Z</time>
      </trkpt>
      <trkpt lat="47.0461" lon="7.09855">
        <ele>430.58</ele>
        <time>2020-10-08T09:11:58.564Z</time>
      </trkpt>
      <trkpt lat="47.04605" lon="7.09856">
        <ele>430.59</ele>
        <time>2020-10-08T09:12:03.900Z</time>
      </trkpt>
      <trkpt lat="47.04589" lon="7.09861">
        <ele>430.76</ele>
        <time>2020-10-08T09:12:22.671Z</time>
      </trkpt>
      <trkpt lat="47.04581" lon="7.09864">
        <ele>430.92</ele>
        <time>2020-10-08T09:12:33.094Z</time>
      </trkpt>
      <trkpt lat="47.04551" lon="7.09875">
        <ele>431.34</ele>
        <time>2020-10-08T09:13:09.760Z</time>
      </trkpt>
      <trkpt lat="47.04541" lon="7.09878">
        <ele>431.51</ele>
        <time>2020-10-08T09:13:22.265Z</time>
      </trkpt>
      <trkpt lat="47.04526" lon="7.0988">
        <ele>431.94</ele>
        <time>2020-10-08T09:13:43.440Z</time>
      </trkpt>
      <trkpt lat="47.04519" lon="7.09881">
        <ele>432.33</ele>
        <time>2020-10-08T09:13:56.681Z</time>
      </trkpt>
      <trkpt lat="47.04522" lon="7.09887">
        <ele>431.58</ele>
        <time>2020-10-08T09:13:57.808Z</time>
      </trkpt>
      <trkpt lat="47.04528" lon="7.099">
        <ele>431.33</ele>
        <time>2020-10-08T09:14:01.049Z</time>
      </trkpt>
      <trkpt lat="47.04539" lon="7.09921">
        <ele>431.02</ele>
        <time>2020-10-08T09:14:06.927Z</time>
      </trkpt>
      <trkpt lat="47.04549" lon="7.09942">
        <ele>430.72</ele>
        <time>2020-10-08T09:14:12.612Z</time>
      </trkpt>
      <trkpt lat="47.04551" lon="7.0994">
        <ele>430.84</ele>
        <time>2020-10-08T09:14:16.994Z</time>
      </trkpt>
      <trkpt lat="47.04551" lon="7.0994">
        <ele>430.84</ele>
        <time>2020-10-08T09:14:16.994Z</time>
      </trkpt>
      <trkpt lat="47.04549" lon="7.09942">
        <ele>430.72</ele>
        <time>2020-10-08T09:14:17.560Z</time>
      </trkpt>
      <trkpt lat="47.04559" lon="7.09961">
        <ele>430.54</ele>
        <time>2020-10-08T09:14:23.318Z</time>
      </trkpt>
      <trkpt lat="47.04579" lon="7.10002">
        <ele>430.34</ele>
        <time>2020-10-08T09:14:56.070Z</time>
      </trkpt>
      <trkpt lat="47.04588" lon="7.1002">
        <ele>430.33</ele>
        <time>2020-10-08T09:15:11.708Z</time>
      </trkpt>
      <trkpt lat="47.0459" lon="7.10025">
        <ele>430.33</ele>
        <time>2020-10-08T09:15:15.809Z</time>
      </trkpt>
      <trkpt lat="47.04611" lon="7.10068">
        <ele>430.02</ele>
        <time>2020-10-08T09:15:28.913Z</time>
      </trkpt>
      <trkpt lat="47.04626" lon="7.10099">
        <ele>430.01</ele>
        <time>2020-10-08T09:15:55.653Z</time>
      </trkpt>
      <trkpt lat="47.04635" lon="7.10118">
        <ele>430.25</ele>
        <time>2020-10-08T09:16:14.676Z</time>
      </trkpt>
      <trkpt lat="47.04636" lon="7.10121">
        <ele>430.27</ele>
        <time>2020-10-08T09:16:17.245Z</time>
      </trkpt>
      <trkpt lat="47.0464" lon="7.10126">
        <ele>430.41</ele>
        <time>2020-10-08T09:16:24.462Z</time>
      </trkpt>
      <trkpt lat="47.04661" lon="7.10161">
        <ele>431.16</ele>
        <time>2020-10-08T09:17:06.554Z</time>
      </trkpt>
      <trkpt lat="47.04662" lon="7.10163">
        <ele>430.01</ele>
        <time>2020-10-08T09:17:06.929Z</time>
      </trkpt>
      <trkpt lat="47.04663" lon="7.10165">
        <ele>429.95</ele>
        <time>2020-10-08T09:17:07.380Z</time>
      </trkpt>
      <trkpt lat="47.04664" lon="7.10166">
        <ele>430.02</ele>
        <time>2020-10-08T09:17:09.696Z</time>
      </trkpt>
      <trkpt lat="47.04665" lon="7.1017">
        <ele>430.37</ele>
        <time>2020-10-08T09:17:19.497Z</time>
      </trkpt>
      <trkpt lat="47.0467" lon="7.10182">
        <ele>429.74</ele>
        <time>2020-10-08T09:17:21.462Z</time>
      </trkpt>
      <trkpt lat="47.04675" lon="7.10196">
        <ele>429.93</ele>
        <time>2020-10-08T09:17:34.799Z</time>
      </trkpt>
      <trkpt lat="47.04681" lon="7.10207">
        <ele>430.04</ele>
        <time>2020-10-08T09:17:45.936Z</time>
      </trkpt>
      <trkpt lat="47.04687" lon="7.10221">
        <ele>430.06</ele>
        <time>2020-10-08T09:17:57.830Z</time>
      </trkpt>
      <trkpt lat="47.04696" lon="7.1024">
        <ele>429.99</ele>
        <time>2020-10-08T09:18:13.158Z</time>
      </trkpt>
      <trkpt lat="47.04711" lon="7.10271">
        <ele>429.96</ele>
        <time>2020-10-08T09:18:39.587Z</time>
      </trkpt>
      <trkpt lat="47.04727" lon="7.1031">
        <ele>430.02</ele>
        <time>2020-10-08T09:19:12.374Z</time>
      </trkpt>
      <trkpt lat="47.04728" lon="7.10312">
        <ele>430.01</ele>
        <time>2020-10-08T09:19:13.983Z</time>
      </trkpt>
      <trkpt lat="47.04747" lon="7.10358">
        <ele>429.9</ele>
        <time>2020-10-08T09:19:50.365Z</time>
      </trkpt>
      <trkpt lat="47.04763" lon="7.10395">
        <ele>430.03</ele>
        <time>2020-10-08T09:20:22.654Z</time>
      </trkpt>
      <trkpt lat="47.04772" lon="7.10414">
        <ele>430.1</ele>
        <time>2020-10-08T09:20:39.719Z</time>
      </trkpt>
      <trkpt lat="47.04792" lon="7.10458">
        <ele>430.14</ele>
        <time>2020-10-08T09:21:17.521Z</time>
      </trkpt>
      <trkpt lat="47.04805" lon="7.10485">
        <ele>430.19</ele>
        <time>2020-10-08T09:21:41.395Z</time>
      </trkpt>
      <trkpt lat="47.0481" lon="7.10497">
        <ele>430.22</ele>
        <time>2020-10-08T09:21:51.639Z</time>
      </trkpt>
      <trkpt lat="47.04814" lon="7.10505">
        <ele>430.18</ele>
        <time>2020-10-08T09:21:58.075Z</time>
      </trkpt>
      <trkpt lat="47.04827" lon="7.10535">
        <ele>430.04</ele>
        <time>2020-10-08T09:22:21.181Z</time>
      </trkpt>
      <trkpt lat="47.04842" lon="7.10567">
        <ele>430.1</ele>
        <time>2020-10-08T09:22:49.241Z</time>
      </trkpt>
      <trkpt lat="47.04859" lon="7.10602">
        <ele>430.08</ele>
        <time>2020-10-08T09:23:19.333Z</time>
      </trkpt>
      <trkpt lat="47.0486" lon="7.10606">
        <ele>430.07</ele>
        <time>2020-10-08T09:23:22.197Z</time>
      </trkpt>
      <trkpt lat="47.04861" lon="7.10608">
        <ele>430.07</ele>
        <time>2020-10-08T09:23:23.951Z</time>
      </trkpt>
      <trkpt lat="47.04882" lon="7.10652">
        <ele>430.01</ele>
        <time>2020-10-08T09:24:01.024Z</time>
      </trkpt>
      <trkpt lat="47.04919" lon="7.10733">
        <ele>429.96</ele>
        <time>2020-10-08T09:25:09.224Z</time>
      </trkpt>
      <trkpt lat="47.0493" lon="7.10755">
        <ele>429.9</ele>
        <time>2020-10-08T09:25:27.619Z</time>
      </trkpt>
      <trkpt lat="47.04956" lon="7.10811">
        <ele>429.94</ele>
        <time>2020-10-08T09:26:15.941Z</time>
      </trkpt>
      <trkpt lat="47.04966" lon="7.10834">
        <ele>429.98</ele>
        <time>2020-10-08T09:26:35.630Z</time>
      </trkpt>
      <trkpt lat="47.04982" lon="7.10867">
        <ele>429.96</ele>
        <time>2020-10-08T09:27:03.967Z</time>
      </trkpt>
      <trkpt lat="47.04991" lon="7.10884">
        <ele>429.93</ele>
        <time>2020-10-08T09:27:18.734Z</time>
      </trkpt>
      <trkpt lat="47.0501" lon="7.10926">
        <ele>429.9</ele>
        <time>2020-10-08T09:27:53.927Z</time>
      </trkpt>
      <trkpt lat="47.05013" lon="7.10932">
        <ele>429.9</ele>
        <time>2020-10-08T09:27:59.192Z</time>
      </trkpt>
      <trkpt lat="47.05028" lon="7.10964">
        <ele>429.94</ele>
        <time>2020-10-08T09:28:27.054Z</time>
      </trkpt>
      <trkpt lat="47.0503" lon="7.10968">
        <ele>429.95</ele>
        <time>2020-10-08T09:28:30.662Z</time>
      </trkpt>
      <trkpt lat="47.05048" lon="7.11006">
        <ele>429.96</ele>
        <time>2020-10-08T09:29:03.497Z</time>
      </trkpt>
      <trkpt lat="47.0505" lon="7.11009">
        <ele>429.95</ele>
        <time>2020-10-08T09:29:06.315Z</time>
      </trkpt>
      <trkpt lat="47.05078" lon="7.11071">
        <ele>429.94</ele>
        <time>2020-10-08T09:29:58.775Z</time>
      </trkpt>
      <trkpt lat="47.05098" lon="7.11112">
        <ele>429.94</ele>
        <time>2020-10-08T09:30:34.446Z</time>
      </trkpt>
      <trkpt lat="47.05109" lon="7.11137">
        <ele>429.97</ele>
        <time>2020-10-08T09:30:55.787Z</time>
      </trkpt>
      <trkpt lat="47.05115" lon="7.11149">
        <ele>429.98</ele>
        <time>2020-10-08T09:31:06.412Z</time>
      </trkpt>
      <trkpt lat="47.05128" lon="7.11177">
        <ele>429.95</ele>
        <time>2020-10-08T09:31:29.913Z</time>
      </trkpt>
      <trkpt lat="47.05139" lon="7.112">
        <ele>429.94</ele>
        <time>2020-10-08T09:31:49.634Z</time>
      </trkpt>
      <trkpt lat="47.05143" lon="7.1121">
        <ele>429.82</ele>
        <time>2020-10-08T09:31:52.270Z</time>
      </trkpt>
      <trkpt lat="47.05144" lon="7.11215">
        <ele>429.89</ele>
        <time>2020-10-08T09:31:56.769Z</time>
      </trkpt>
      <trkpt lat="47.05145" lon="7.11218">
        <ele>429.92</ele>
        <time>2020-10-08T09:31:59.456Z</time>
      </trkpt>
      <trkpt lat="47.05147" lon="7.11227">
        <ele>429.96</ele>
        <time>2020-10-08T09:32:06.556Z</time>
      </trkpt>
      <trkpt lat="47.0515" lon="7.11239">
        <ele>429.87</ele>
        <time>2020-10-08T09:32:09.649Z</time>
      </trkpt>
      <trkpt lat="47.05152" lon="7.11246">
        <ele>429.92</ele>
        <time>2020-10-08T09:32:15.540Z</time>
      </trkpt>
      <trkpt lat="47.05157" lon="7.11258">
        <ele>429.88</ele>
        <time>2020-10-08T09:32:24.892Z</time>
      </trkpt>
      <trkpt lat="47.05163" lon="7.11272">
        <ele>429.85</ele>
        <time>2020-10-08T09:32:36.133Z</time>
      </trkpt>
      <trkpt lat="47.05185" lon="7.11318">
        <ele>430.01</ele>
        <time>2020-10-08T09:33:17.472Z</time>
      </trkpt>
      <trkpt lat="47.05197" lon="7.11343">
        <ele>430.03</ele>
        <time>2020-10-08T09:33:39.297Z</time>
      </trkpt>
      <trkpt lat="47.05207" lon="7.11366">
        <ele>430.05</ele>
        <time>2020-10-08T09:33:58.789Z</time>
      </trkpt>
      <trkpt lat="47.05232" lon="7.11418">
        <ele>429.97</ele>
        <time>2020-10-08T09:34:42.571Z</time>
      </trkpt>
      <trkpt lat="47.05249" lon="7.11454">
        <ele>429.95</ele>
        <time>2020-10-08T09:35:13.241Z</time>
      </trkpt>
      <trkpt lat="47.05255" lon="7.11468">
        <ele>429.92</ele>
        <time>2020-10-08T09:35:24.482Z</time>
      </trkpt>
      <trkpt lat="47.05278" lon="7.11518">
        <ele>429.77</ele>
        <time>2020-10-08T09:36:04.898Z</time>
      </trkpt>
      <trkpt lat="47.05323" lon="7.11614">
        <ele>429.9</ele>
        <time>2020-10-08T09:37:28.581Z</time>
      </trkpt>
      <trkpt lat="47.05334" lon="7.11637">
        <ele>429.91</ele>
        <time>2020-10-08T09:37:48.554Z</time>
      </trkpt>
      <trkpt lat="47.05351" lon="7.11674">
        <ele>429.94</ele>
        <time>2020-10-08T09:38:20.410Z</time>
      </trkpt>
      <trkpt lat="47.05378" lon="7.11731">
        <ele>430.16</ele>
        <time>2020-10-08T09:39:11.702Z</time>
      </trkpt>
      <trkpt lat="47.05381" lon="7.11737">
        <ele>430.16</ele>
        <time>2020-10-08T09:39:16.967Z</time>
      </trkpt>
      <trkpt lat="47.05412" lon="7.11804">
        <ele>430</ele>
        <time>2020-10-08T09:40:11.819Z</time>
      </trkpt>
      <trkpt lat="47.05457" lon="7.119">
        <ele>430.07</ele>
        <time>2020-10-08T09:41:34.916Z</time>
      </trkpt>
      <trkpt lat="47.05478" lon="7.11947">
        <ele>430.03</ele>
        <time>2020-10-08T09:42:14.047Z</time>
      </trkpt>
      <trkpt lat="47.05505" lon="7.12006">
        <ele>430.19</ele>
        <time>2020-10-08T09:43:05.891Z</time>
      </trkpt>
      <trkpt lat="47.05519" lon="7.12037">
        <ele>430.14</ele>
        <time>2020-10-08T09:43:31.427Z</time>
      </trkpt>
      <trkpt lat="47.05527" lon="7.12053">
        <ele>430.19</ele>
        <time>2020-10-08T09:43:45.957Z</time>
      </trkpt>
      <trkpt lat="47.0553" lon="7.12058">
        <ele>430.2</ele>
        <time>2020-10-08T09:43:50.767Z</time>
      </trkpt>
      <trkpt lat="47.05549" lon="7.12098">
        <ele>430.22</ele>
        <time>2020-10-08T09:44:25.450Z</time>
      </trkpt>
      <trkpt lat="47.05556" lon="7.12112">
        <ele>429.99</ele>
        <time>2020-10-08T09:44:29.200Z</time>
      </trkpt>
      <trkpt lat="47.05561" lon="7.12121">
        <ele>429.82</ele>
        <time>2020-10-08T09:44:31.649Z</time>
      </trkpt>
      <trkpt lat="47.05563" lon="7.12123">
        <ele>429.77</ele>
        <time>2020-10-08T09:44:32.405Z</time>
      </trkpt>
      <trkpt lat="47.05568" lon="7.12134">
        <ele>429.77</ele>
        <time>2020-10-08T09:44:41.758Z</time>
      </trkpt>
      <trkpt lat="47.05575" lon="7.12149">
        <ele>429.85</ele>
        <time>2020-10-08T09:44:55.428Z</time>
      </trkpt>
      <trkpt lat="47.05583" lon="7.12169">
        <ele>429.7</ele>
        <time>2020-10-08T09:45:01.102Z</time>
      </trkpt>
      <trkpt lat="47.0559" lon="7.12186">
        <ele>430.08</ele>
        <time>2020-10-08T09:45:20.018Z</time>
      </trkpt>
      <trkpt lat="47.05593" lon="7.12191">
        <ele>429.99</ele>
        <time>2020-10-08T09:45:21.450Z</time>
      </trkpt>
      <trkpt lat="47.05601" lon="7.12208">
        <ele>429.68</ele>
        <time>2020-10-08T09:45:25.780Z</time>
      </trkpt>
      <trkpt lat="47.05613" lon="7.12233">
        <ele>430.08</ele>
        <time>2020-10-08T09:45:52.027Z</time>
      </trkpt>
      <trkpt lat="47.05634" lon="7.12276">
        <ele>430.16</ele>
        <time>2020-10-08T09:46:30.226Z</time>
      </trkpt>
      <trkpt lat="47.05642" lon="7.12294">
        <ele>430.08</ele>
        <time>2020-10-08T09:46:44.254Z</time>
      </trkpt>
      <trkpt lat="47.05649" lon="7.12308">
        <ele>430</ele>
        <time>2020-10-08T09:46:55.384Z</time>
      </trkpt>
      <trkpt lat="47.05654" lon="7.12319">
        <ele>429.94</ele>
        <time>2020-10-08T09:47:03.871Z</time>
      </trkpt>
      <trkpt lat="47.05665" lon="7.1234">
        <ele>430.01</ele>
        <time>2020-10-08T09:47:23.298Z</time>
      </trkpt>
      <trkpt lat="47.05672" lon="7.12354">
        <ele>430.04</ele>
        <time>2020-10-08T09:47:35.874Z</time>
      </trkpt>
      <trkpt lat="47.05704" lon="7.12416">
        <ele>429.97</ele>
        <time>2020-10-08T09:48:29.800Z</time>
      </trkpt>
      <trkpt lat="47.05715" lon="7.12438">
        <ele>430.07</ele>
        <time>2020-10-08T09:48:50.103Z</time>
      </trkpt>
      <trkpt lat="47.05716" lon="7.1244">
        <ele>430.08</ele>
        <time>2020-10-08T09:48:51.958Z</time>
      </trkpt>
      <trkpt lat="47.05728" lon="7.12467">
        <ele>430.13</ele>
        <time>2020-10-08T09:49:15.246Z</time>
      </trkpt>
      <trkpt lat="47.05732" lon="7.12475">
        <ele>430.12</ele>
        <time>2020-10-08T09:49:22.110Z</time>
      </trkpt>
      <trkpt lat="47.05748" lon="7.12509">
        <ele>430.25</ele>
        <time>2020-10-08T09:49:52.629Z</time>
      </trkpt>
      <trkpt lat="47.05757" lon="7.12526">
        <ele>430.33</ele>
        <time>2020-10-08T09:50:08.658Z</time>
      </trkpt>
      <trkpt lat="47.05762" lon="7.12538">
        <ele>430.35</ele>
        <time>2020-10-08T09:50:18.801Z</time>
      </trkpt>
      <trkpt lat="47.05781" lon="7.12579">
        <ele>430.21</ele>
        <time>2020-10-08T09:50:51.780Z</time>
      </trkpt>
      <trkpt lat="47.05789" lon="7.12597">
        <ele>430.47</ele>
        <time>2020-10-08T09:51:09.935Z</time>
      </trkpt>
      <trkpt lat="47.05792" lon="7.12605">
        <ele>430.47</ele>
        <time>2020-10-08T09:51:16.394Z</time>
      </trkpt>
      <trkpt lat="47.05824" lon="7.12674">
        <ele>430.35</ele>
        <time>2020-10-08T09:52:13.584Z</time>
      </trkpt>
      <trkpt lat="47.0584" lon="7.12713">
        <ele>430.47</ele>
        <time>2020-10-08T09:52:46.968Z</time>
      </trkpt>
      <trkpt lat="47.05861" lon="7.12762">
        <ele>430.35</ele>
        <time>2020-10-08T09:53:26.090Z</time>
      </trkpt>
      <trkpt lat="47.0588" lon="7.12809">
        <ele>430.16</ele>
        <time>2020-10-08T09:54:01.942Z</time>
      </trkpt>
      <trkpt lat="47.05893" lon="7.12837">
        <ele>430.31</ele>
        <time>2020-10-08T09:54:27.425Z</time>
      </trkpt>
      <trkpt lat="47.05907" lon="7.1287">
        <ele>430.1</ele>
        <time>2020-10-08T09:54:37.139Z</time>
      </trkpt>
      <trkpt lat="47.05928" lon="7.12916">
        <ele>430.13</ele>
        <time>2020-10-08T09:55:16.592Z</time>
      </trkpt>
      <trkpt lat="47.0595" lon="7.12965">
        <ele>430</ele>
        <time>2020-10-08T09:55:56.130Z</time>
      </trkpt>
      <trkpt lat="47.05967" lon="7.13004">
        <ele>430.03</ele>
        <time>2020-10-08T09:56:29.165Z</time>
      </trkpt>
      <trkpt lat="47.05967" lon="7.13005">
        <ele>430.03</ele>
        <time>2020-10-08T09:56:29.872Z</time>
      </trkpt>
      <trkpt lat="47.05988" lon="7.13052">
        <ele>429.88</ele>
        <time>2020-10-08T09:57:07.376Z</time>
      </trkpt>
      <trkpt lat="47.05989" lon="7.13054">
        <ele>429.87</ele>
        <time>2020-10-08T09:57:08.985Z</time>
      </trkpt>
      <trkpt lat="47.05999" lon="7.13076">
        <ele>429.72</ele>
        <time>2020-10-08T09:57:15.558Z</time>
      </trkpt>
      <trkpt lat="47.06005" lon="7.13092">
        <ele>430</ele>
        <time>2020-10-08T09:57:31.830Z</time>
      </trkpt>
      <trkpt lat="47.06012" lon="7.13116">
        <ele>430.04</ele>
        <time>2020-10-08T09:57:50.684Z</time>
      </trkpt>
      <trkpt lat="47.06018" lon="7.13137">
        <ele>430.17</ele>
        <time>2020-10-08T09:58:08.129Z</time>
      </trkpt>
      <trkpt lat="47.06024" lon="7.13155">
        <ele>430.3</ele>
        <time>2020-10-08T09:58:23.657Z</time>
      </trkpt>
      <trkpt lat="47.06029" lon="7.13168">
        <ele>430.39</ele>
        <time>2020-10-08T09:58:35.147Z</time>
      </trkpt>
      <trkpt lat="47.06032" lon="7.13181">
        <ele>430.46</ele>
        <time>2020-10-08T09:58:45.570Z</time>
      </trkpt>
      <trkpt lat="47.06034" lon="7.13187">
        <ele>430.5</ele>
        <time>2020-10-08T09:58:50.708Z</time>
      </trkpt>
      <trkpt lat="47.06035" lon="7.13192">
        <ele>430.55</ele>
        <time>2020-10-08T09:58:54.940Z</time>
      </trkpt>
      <trkpt lat="47.06035" lon="7.13197">
        <ele>430.61</ele>
        <time>2020-10-08T09:58:59.157Z</time>
      </trkpt>
      <trkpt lat="47.06036" lon="7.13201">
        <ele>430.67</ele>
        <time>2020-10-08T09:59:02.874Z</time>
      </trkpt>
      <trkpt lat="47.06037" lon="7.13211">
        <ele>430.81</ele>
        <time>2020-10-08T09:59:11.659Z</time>
      </trkpt>
      <trkpt lat="47.06037" lon="7.13212">
        <ele>430.82</ele>
        <time>2020-10-08T09:59:12.476Z</time>
      </trkpt>
      <trkpt lat="47.06039" lon="7.13232">
        <ele>431.31</ele>
        <time>2020-10-08T09:59:33.686Z</time>
      </trkpt>
      <trkpt lat="47.06039" lon="7.13233">
        <ele>431.35</ele>
        <time>2020-10-08T09:59:34.998Z</time>
      </trkpt>
      <trkpt lat="47.0604" lon="7.13239">
        <ele>431.52</ele>
        <time>2020-10-08T09:59:41.933Z</time>
      </trkpt>
      <trkpt lat="47.0604" lon="7.13239">
        <ele>431.53</ele>
        <time>2020-10-08T09:59:41.933Z</time>
      </trkpt>
      <trkpt lat="47.06041" lon="7.1324">
        <ele>431.54</ele>
        <time>2020-10-08T09:59:43.292Z</time>
      </trkpt>
      <trkpt lat="47.06044" lon="7.13246">
        <ele>431.57</ele>
        <time>2020-10-08T09:59:48.858Z</time>
      </trkpt>
      <trkpt lat="47.06047" lon="7.13248">
        <ele>431.69</ele>
        <time>2020-10-08T09:59:53.991Z</time>
      </trkpt>
      <trkpt lat="47.06051" lon="7.13252">
        <ele>431.89</ele>
        <time>2020-10-08T10:00:02.077Z</time>
      </trkpt>
      <trkpt lat="47.06053" lon="7.13253">
        <ele>431.85</ele>
        <time>2020-10-08T10:00:02.750Z</time>
      </trkpt>
      <trkpt lat="47.06055" lon="7.13254">
        <ele>431.81</ele>
        <time>2020-10-08T10:00:03.424Z</time>
      </trkpt>
      <trkpt lat="47.06059" lon="7.13255">
        <ele>432.01</ele>
        <time>2020-10-08T10:00:10.756Z</time>
      </trkpt>
      <trkpt lat="47.06064" lon="7.13255">
        <ele>432.03</ele>
        <time>2020-10-08T10:00:16.145Z</time>
      </trkpt>
      <trkpt lat="47.06075" lon="7.13255">
        <ele>431.91</ele>
        <time>2020-10-08T10:00:20.022Z</time>
      </trkpt>
      <trkpt lat="47.06139" lon="7.13248">
        <ele>432.86</ele>
        <time>2020-10-08T10:01:37.105Z</time>
      </trkpt>
      <trkpt lat="47.06145" lon="7.13247">
        <ele>432.76</ele>
        <time>2020-10-08T10:01:39.087Z</time>
      </trkpt>
      <trkpt lat="47.06149" lon="7.13248">
        <ele>432.85</ele>
        <time>2020-10-08T10:01:44.374Z</time>
      </trkpt>
      <trkpt lat="47.06152" lon="7.13249">
        <ele>432.81</ele>
        <time>2020-10-08T10:01:45.429Z</time>
      </trkpt>
      <trkpt lat="47.06155" lon="7.13251">
        <ele>432.87</ele>
        <time>2020-10-08T10:01:49.535Z</time>
      </trkpt>
      <trkpt lat="47.06157" lon="7.13253">
        <ele>432.72</ele>
        <time>2020-10-08T10:01:50.045Z</time>
      </trkpt>
      <trkpt lat="47.06172" lon="7.13271">
        <ele>432.29</ele>
        <time>2020-10-08T10:01:55.993Z</time>
      </trkpt>
      <trkpt lat="47.06175" lon="7.13275">
        <ele>432.22</ele>
        <time>2020-10-08T10:01:57.311Z</time>
      </trkpt>
      <trkpt lat="47.06177" lon="7.13276">
        <ele>432.23</ele>
        <time>2020-10-08T10:01:59.604Z</time>
      </trkpt>
      <trkpt lat="47.06179" lon="7.13277">
        <ele>432.23</ele>
        <time>2020-10-08T10:02:01.798Z</time>
      </trkpt>
      <trkpt lat="47.06188" lon="7.13281">
        <ele>432.05</ele>
        <time>2020-10-08T10:02:04.789Z</time>
      </trkpt>
      <trkpt lat="47.06197" lon="7.13285">
        <ele>431.68</ele>
        <time>2020-10-08T10:02:07.202Z</time>
      </trkpt>
      <trkpt lat="47.06216" lon="7.13293">
        <ele>431.06</ele>
        <time>2020-10-08T10:02:12.694Z</time>
      </trkpt>
      <trkpt lat="47.06227" lon="7.13299">
        <ele>431.21</ele>
        <time>2020-10-08T10:02:26.493Z</time>
      </trkpt>
      <trkpt lat="47.06232" lon="7.13302">
        <ele>431.28</ele>
        <time>2020-10-08T10:02:32.857Z</time>
      </trkpt>
      <trkpt lat="47.06235" lon="7.13304">
        <ele>431.29</ele>
        <time>2020-10-08T10:02:36.375Z</time>
      </trkpt>
      <trkpt lat="47.06238" lon="7.13307">
        <ele>431.1</ele>
        <time>2020-10-08T10:02:37.204Z</time>
      </trkpt>
      <trkpt lat="47.06248" lon="7.13318">
        <ele>431.08</ele>
        <time>2020-10-08T10:02:49.867Z</time>
      </trkpt>
      <trkpt lat="47.06251" lon="7.13321">
        <ele>430.87</ele>
        <time>2020-10-08T10:02:50.659Z</time>
      </trkpt>
      <trkpt lat="47.06256" lon="7.13327">
        <ele>430.8</ele>
        <time>2020-10-08T10:02:52.937Z</time>
      </trkpt>
      <trkpt lat="47.06273" lon="7.13348">
        <ele>431</ele>
        <time>2020-10-08T10:03:18.078Z</time>
      </trkpt>
      <trkpt lat="47.06286" lon="7.13363">
        <ele>431.07</ele>
        <time>2020-10-08T10:03:35.938Z</time>
      </trkpt>
      <trkpt lat="47.06293" lon="7.13371">
        <ele>430.96</ele>
        <time>2020-10-08T10:03:39.004Z</time>
      </trkpt>
      <trkpt lat="47.06298" lon="7.13377">
        <ele>430.79</ele>
        <time>2020-10-08T10:03:40.897Z</time>
      </trkpt>
      <trkpt lat="47.06307" lon="7.13388">
        <ele>430.73</ele>
        <time>2020-10-08T10:03:52.171Z</time>
      </trkpt>
      <trkpt lat="47.06308" lon="7.13389">
        <ele>430.73</ele>
        <time>2020-10-08T10:03:53.427Z</time>
      </trkpt>
      <trkpt lat="47.06317" lon="7.134">
        <ele>430.67</ele>
        <time>2020-10-08T10:04:04.701Z</time>
      </trkpt>
      <trkpt lat="47.0632" lon="7.13404">
        <ele>430.74</ele>
        <time>2020-10-08T10:04:09.700Z</time>
      </trkpt>
      <trkpt lat="47.06324" lon="7.13408">
        <ele>430.81</ele>
        <time>2020-10-08T10:04:15.492Z</time>
      </trkpt>
      <trkpt lat="47.06343" lon="7.13425">
        <ele>430.71</ele>
        <time>2020-10-08T10:04:37.106Z</time>
      </trkpt>
      <trkpt lat="47.0635" lon="7.13432">
        <ele>430.58</ele>
        <time>2020-10-08T10:04:39.926Z</time>
      </trkpt>
      <trkpt lat="47.06367" lon="7.1345">
        <ele>430.05</ele>
        <time>2020-10-08T10:04:46.141Z</time>
      </trkpt>
      <trkpt lat="47.06383" lon="7.1347">
        <ele>430.19</ele>
        <time>2020-10-08T10:05:09.377Z</time>
      </trkpt>
      <trkpt lat="47.064" lon="7.13491">
        <ele>430.34</ele>
        <time>2020-10-08T10:05:33.965Z</time>
      </trkpt>
      <trkpt lat="47.06411" lon="7.13506">
        <ele>430.38</ele>
        <time>2020-10-08T10:05:49.943Z</time>
      </trkpt>
      <trkpt lat="47.06443" lon="7.13547">
        <ele>430.49</ele>
        <time>2020-10-08T10:06:35.112Z</time>
      </trkpt>
      <trkpt lat="47.06452" lon="7.13558">
        <ele>430.42</ele>
        <time>2020-10-08T10:06:46.250Z</time>
      </trkpt>
      <trkpt lat="47.06456" lon="7.13564">
        <ele>430.31</ele>
        <time>2020-10-08T10:06:48.067Z</time>
      </trkpt>
      <trkpt lat="47.06465" lon="7.13577">
        <ele>430.48</ele>
        <time>2020-10-08T10:07:03.020Z</time>
      </trkpt>
      <trkpt lat="47.0648" lon="7.13597">
        <ele>430.51</ele>
        <time>2020-10-08T10:07:24.347Z</time>
      </trkpt>
      <trkpt lat="47.06494" lon="7.13615">
        <ele>430.71</ele>
        <time>2020-10-08T10:07:45.779Z</time>
      </trkpt>
      <trkpt lat="47.06499" lon="7.13621">
        <ele>430.78</ele>
        <time>2020-10-08T10:07:53.223Z</time>
      </trkpt>
      <trkpt lat="47.06505" lon="7.13628">
        <ele>430.89</ele>
        <time>2020-10-08T10:08:02.384Z</time>
      </trkpt>
      <trkpt lat="47.06511" lon="7.13634">
        <ele>431.02</ele>
        <time>2020-10-08T10:08:11.400Z</time>
      </trkpt>
      <trkpt lat="47.06516" lon="7.13638">
        <ele>430.93</ele>
        <time>2020-10-08T10:08:13.286Z</time>
      </trkpt>
      <trkpt lat="47.06521" lon="7.13644">
        <ele>430.82</ele>
        <time>2020-10-08T10:08:15.393Z</time>
      </trkpt>
      <trkpt lat="47.06523" lon="7.13645">
        <ele>430.81</ele>
        <time>2020-10-08T10:08:17.438Z</time>
      </trkpt>
      <trkpt lat="47.06531" lon="7.13651">
        <ele>430.67</ele>
        <time>2020-10-08T10:08:20.422Z</time>
      </trkpt>
      <trkpt lat="47.06538" lon="7.13655">
        <ele>430.99</ele>
        <time>2020-10-08T10:08:33.211Z</time>
      </trkpt>
      <trkpt lat="47.06545" lon="7.13657">
        <ele>431</ele>
        <time>2020-10-08T10:08:40.711Z</time>
      </trkpt>
      <trkpt lat="47.06545" lon="7.13658">
        <ele>431</ele>
        <time>2020-10-08T10:08:41.419Z</time>
      </trkpt>
      <trkpt lat="47.06552" lon="7.13661">
        <ele>431.01</ele>
        <time>2020-10-08T10:08:49.086Z</time>
      </trkpt>
      <trkpt lat="47.06567" lon="7.13668">
        <ele>430.94</ele>
        <time>2020-10-08T10:09:04.385Z</time>
      </trkpt>
      <trkpt lat="47.06567" lon="7.13668">
        <ele>430.94</ele>
        <time>2020-10-08T10:09:04.385Z</time>
      </trkpt>
      <trkpt lat="47.06591" lon="7.13684">
        <ele>430.98</ele>
        <time>2020-10-08T10:09:32.137Z</time>
      </trkpt>
      <trkpt lat="47.06609" lon="7.13694">
        <ele>430.85</ele>
        <time>2020-10-08T10:09:50.245Z</time>
      </trkpt>
      <trkpt lat="47.06611" lon="7.13695">
        <ele>430.83</ele>
        <time>2020-10-08T10:09:51.004Z</time>
      </trkpt>
      <trkpt lat="47.06628" lon="7.13706">
        <ele>430.7</ele>
        <time>2020-10-08T10:10:08.425Z</time>
      </trkpt>
      <trkpt lat="47.06633" lon="7.13709">
        <ele>430.84</ele>
        <time>2020-10-08T10:10:15.778Z</time>
      </trkpt>
      <trkpt lat="47.06638" lon="7.13712">
        <ele>430.99</ele>
        <time>2020-10-08T10:10:23.300Z</time>
      </trkpt>
      <trkpt lat="47.06642" lon="7.13714">
        <ele>430.84</ele>
        <time>2020-10-08T10:10:24.426Z</time>
      </trkpt>
      <trkpt lat="47.0665" lon="7.13717">
        <ele>430.71</ele>
        <time>2020-10-08T10:10:27.162Z</time>
      </trkpt>
      <trkpt lat="47.0666" lon="7.13721">
        <ele>430.67</ele>
        <time>2020-10-08T10:10:37.322Z</time>
      </trkpt>
      <trkpt lat="47.06667" lon="7.13724">
        <ele>430.87</ele>
        <time>2020-10-08T10:10:47.433Z</time>
      </trkpt>
      <trkpt lat="47.06669" lon="7.13725">
        <ele>430.92</ele>
        <time>2020-10-08T10:10:50.234Z</time>
      </trkpt>
      <trkpt lat="47.06678" lon="7.13729">
        <ele>431.17</ele>
        <time>2020-10-08T10:11:03.140Z</time>
      </trkpt>
      <trkpt lat="47.06695" lon="7.13737">
        <ele>431.01</ele>
        <time>2020-10-08T10:11:09.597Z</time>
      </trkpt>
      <trkpt lat="47.06699" lon="7.13739">
        <ele>430.98</ele>
        <time>2020-10-08T10:11:13.554Z</time>
      </trkpt>
      <trkpt lat="47.06705" lon="7.13743">
        <ele>430.96</ele>
        <time>2020-10-08T10:11:20.091Z</time>
      </trkpt>
      <trkpt lat="47.06737" lon="7.13762">
        <ele>430.92</ele>
        <time>2020-10-08T10:11:55.304Z</time>
      </trkpt>
      <trkpt lat="47.0674" lon="7.13763">
        <ele>430.94</ele>
        <time>2020-10-08T10:11:58.700Z</time>
      </trkpt>
      <trkpt lat="47.06748" lon="7.13768">
        <ele>430.97</ele>
        <time>2020-10-08T10:12:08.022Z</time>
      </trkpt>
      <trkpt lat="47.06749" lon="7.13769">
        <ele>430.95</ele>
        <time>2020-10-08T10:12:08.419Z</time>
      </trkpt>
      <trkpt lat="47.06754" lon="7.13772">
        <ele>430.89</ele>
        <time>2020-10-08T10:12:10.318Z</time>
      </trkpt>
      <trkpt lat="47.06762" lon="7.13778">
        <ele>431.04</ele>
        <time>2020-10-08T10:12:21.329Z</time>
      </trkpt>
      <trkpt lat="47.06762" lon="7.13779">
        <ele>431.05</ele>
        <time>2020-10-08T10:12:22.146Z</time>
      </trkpt>
      <trkpt lat="47.06762" lon="7.13779">
        <ele>431.04</ele>
        <time>2020-10-08T10:12:22.146Z</time>
      </trkpt>
      <trkpt lat="47.06771" lon="7.13787">
        <ele>431.01</ele>
        <time>2020-10-08T10:12:32.612Z</time>
      </trkpt>
      <trkpt lat="47.06772" lon="7.13789">
        <ele>431.07</ele>
        <time>2020-10-08T10:12:35.213Z</time>
      </trkpt>
      <trkpt lat="47.06777" lon="7.13795">
        <ele>431.36</ele>
        <time>2020-10-08T10:12:46.558Z</time>
      </trkpt>
      <trkpt lat="47.0678" lon="7.1379">
        <ele>430.99</ele>
        <time>2020-10-08T10:12:47.566Z</time>
      </trkpt>
      <trkpt lat="47.06781" lon="7.13787">
        <ele>430.87</ele>
        <time>2020-10-08T10:12:48.083Z</time>
      </trkpt>
      <trkpt lat="47.06782" lon="7.13782">
        <ele>431</ele>
        <time>2020-10-08T10:12:53.629Z</time>
      </trkpt>
      <trkpt lat="47.06785" lon="7.13765">
        <ele>430.82</ele>
        <time>2020-10-08T10:12:57.628Z</time>
      </trkpt>
      <trkpt lat="47.06787" lon="7.13757">
        <ele>430.76</ele>
        <time>2020-10-08T10:12:59.689Z</time>
      </trkpt>
      <trkpt lat="47.06791" lon="7.13745">
        <ele>430.66</ele>
        <time>2020-10-08T10:13:02.893Z</time>
      </trkpt>
      <trkpt lat="47.068" lon="7.13706">
        <ele>430.73</ele>
        <time>2020-10-08T10:13:32.694Z</time>
      </trkpt>
      <trkpt lat="47.06804" lon="7.13686">
        <ele>430.73</ele>
        <time>2020-10-08T10:13:47.435Z</time>
      </trkpt>
      <trkpt lat="47.06806" lon="7.13676">
        <ele>430.73</ele>
        <time>2020-10-08T10:13:54.805Z</time>
      </trkpt>
      <trkpt lat="47.06827" lon="7.13578">
        <ele>430.73</ele>
        <time>2020-10-08T10:15:07.457Z</time>
      </trkpt>
      <trkpt lat="47.06831" lon="7.13557">
        <ele>430.73</ele>
        <time>2020-10-08T10:15:22.877Z</time>
      </trkpt>
      <trkpt lat="47.06831" lon="7.13557">
        <ele>430.64</ele>
        <time>2020-10-08T10:15:22.877Z</time>
      </trkpt>
      <trkpt lat="47.06831" lon="7.13557">
        <ele>430.64</ele>
        <time>2020-10-08T10:15:22.877Z</time>
      </trkpt>
      <trkpt lat="47.06831" lon="7.13557">
        <ele>430.73</ele>
        <time>2020-10-08T10:15:22.877Z</time>
      </trkpt>
      <trkpt lat="47.06827" lon="7.13578">
        <ele>430.73</ele>
        <time>2020-10-08T10:15:38.298Z</time>
      </trkpt>
      <trkpt lat="47.06806" lon="7.13676">
        <ele>430.73</ele>
        <time>2020-10-08T10:16:50.950Z</time>
      </trkpt>
      <trkpt lat="47.06804" lon="7.13686">
        <ele>430.73</ele>
        <time>2020-10-08T10:16:58.320Z</time>
      </trkpt>
      <trkpt lat="47.068" lon="7.13706">
        <ele>430.73</ele>
        <time>2020-10-08T10:17:13.061Z</time>
      </trkpt>
      <trkpt lat="47.06791" lon="7.13745">
        <ele>430.66</ele>
        <time>2020-10-08T10:17:41.108Z</time>
      </trkpt>
      <trkpt lat="47.06787" lon="7.13757">
        <ele>430.76</ele>
        <time>2020-10-08T10:17:51.613Z</time>
      </trkpt>
      <trkpt lat="47.06785" lon="7.13765">
        <ele>430.82</ele>
        <time>2020-10-08T10:17:58.270Z</time>
      </trkpt>
      <trkpt lat="47.06782" lon="7.13782">
        <ele>431</ele>
        <time>2020-10-08T10:18:12.674Z</time>
      </trkpt>
      <trkpt lat="47.06781" lon="7.13787">
        <ele>430.87</ele>
        <time>2020-10-08T10:18:13.610Z</time>
      </trkpt>
      <trkpt lat="47.0678" lon="7.1379">
        <ele>430.99</ele>
        <time>2020-10-08T10:18:17.815Z</time>
      </trkpt>
      <trkpt lat="47.06777" lon="7.13795">
        <ele>431.36</ele>
        <time>2020-10-08T10:18:28.200Z</time>
      </trkpt>
      <trkpt lat="47.06777" lon="7.13795">
        <ele>431.36</ele>
        <time>2020-10-08T10:18:28.200Z</time>
      </trkpt>
      <trkpt lat="47.0678" lon="7.13802">
        <ele>431.34</ele>
        <time>2020-10-08T10:18:33.747Z</time>
      </trkpt>
      <trkpt lat="47.06783" lon="7.13809">
        <ele>431.89</ele>
        <time>2020-10-08T10:18:48.613Z</time>
      </trkpt>
      <trkpt lat="47.06785" lon="7.13813">
        <ele>432.41</ele>
        <time>2020-10-08T10:19:02.148Z</time>
      </trkpt>
      <trkpt lat="47.06786" lon="7.13816">
        <ele>432.75</ele>
        <time>2020-10-08T10:19:11.259Z</time>
      </trkpt>
      <trkpt lat="47.06787" lon="7.1382">
        <ele>433.05</ele>
        <time>2020-10-08T10:19:19.360Z</time>
      </trkpt>
      <trkpt lat="47.06788" lon="7.13823">
        <ele>433.3</ele>
        <time>2020-10-08T10:19:26.158Z</time>
      </trkpt>
      <trkpt lat="47.06789" lon="7.13823">
        <ele>433.33</ele>
        <time>2020-10-08T10:19:27.590Z</time>
      </trkpt>
      <trkpt lat="47.06799" lon="7.13819">
        <ele>433.65</ele>
        <time>2020-10-08T10:19:42.594Z</time>
      </trkpt>
      <trkpt lat="47.06809" lon="7.1382">
        <ele>433.54</ele>
        <time>2020-10-08T10:19:46.123Z</time>
      </trkpt>
      <trkpt lat="47.06809" lon="7.1382">
        <ele>433.53</ele>
        <time>2020-10-08T10:19:46.123Z</time>
      </trkpt>
      <trkpt lat="47.06842" lon="7.13822">
        <ele>433.08</ele>
        <time>2020-10-08T10:19:57.364Z</time>
      </trkpt>
      <trkpt lat="47.06865" lon="7.13824">
        <ele>433.02</ele>
        <time>2020-10-08T10:20:20.367Z</time>
      </trkpt>
      <trkpt lat="47.06865" lon="7.13824">
        <ele>433.02</ele>
        <time>2020-10-08T10:20:20.367Z</time>
      </trkpt>
      <trkpt lat="47.0688" lon="7.13825">
        <ele>433.09</ele>
        <time>2020-10-08T10:20:36.652Z</time>
      </trkpt>
      <trkpt lat="47.06881" lon="7.13825">
        <ele>433.09</ele>
        <time>2020-10-08T10:20:37.691Z</time>
      </trkpt>
      <trkpt lat="47.06886" lon="7.13826">
        <ele>433.09</ele>
        <time>2020-10-08T10:20:42.930Z</time>
      </trkpt>
      <trkpt lat="47.06892" lon="7.13827">
        <ele>433.06</ele>
        <time>2020-10-08T10:20:48.756Z</time>
      </trkpt>
      <trkpt lat="47.06891" lon="7.13827">
        <ele>433.04</ele>
        <time>2020-10-08T10:20:49.071Z</time>
      </trkpt>
      <trkpt lat="47.06895" lon="7.13828">
        <ele>432.99</ele>
        <time>2020-10-08T10:20:50.475Z</time>
      </trkpt>
      <trkpt lat="47.06896" lon="7.13829">
        <ele>432.96</ele>
        <time>2020-10-08T10:20:50.835Z</time>
      </trkpt>
      <trkpt lat="47.06902" lon="7.13832">
        <ele>432.87</ele>
        <time>2020-10-08T10:20:52.977Z</time>
      </trkpt>
      <trkpt lat="47.06909" lon="7.13837">
        <ele>432.85</ele>
        <time>2020-10-08T10:21:00.753Z</time>
      </trkpt>
      <trkpt lat="47.06944" lon="7.13861">
        <ele>432.96</ele>
        <time>2020-10-08T10:21:41.934Z</time>
      </trkpt>
      <trkpt lat="47.06967" lon="7.13876">
        <ele>433.06</ele>
        <time>2020-10-08T10:22:09.050Z</time>
      </trkpt>
      <trkpt lat="47.06971" lon="7.13878">
        <ele>433.07</ele>
        <time>2020-10-08T10:22:13.534Z</time>
      </trkpt>
      <trkpt lat="47.0699" lon="7.13891">
        <ele>433.16</ele>
        <time>2020-10-08T10:22:36.189Z</time>
      </trkpt>
      <trkpt lat="47.07016" lon="7.13908">
        <ele>433.19</ele>
        <time>2020-10-08T10:23:06.027Z</time>
      </trkpt>
      <trkpt lat="47.07017" lon="7.1391">
        <ele>433.2</ele>
        <time>2020-10-08T10:23:07.882Z</time>
      </trkpt>
      <trkpt lat="47.07057" lon="7.13936">
        <ele>433.24</ele>
        <time>2020-10-08T10:23:53.683Z</time>
      </trkpt>
      <trkpt lat="47.07084" lon="7.13955">
        <ele>433.13</ele>
        <time>2020-10-08T10:24:23.112Z</time>
      </trkpt>
      <trkpt lat="47.07091" lon="7.13961">
        <ele>433.1</ele>
        <time>2020-10-08T10:24:31.076Z</time>
      </trkpt>
      <trkpt lat="47.07097" lon="7.13965">
        <ele>433.07</ele>
        <time>2020-10-08T10:24:37.472Z</time>
      </trkpt>
      <trkpt lat="47.07141" lon="7.13994">
        <ele>432.79</ele>
        <time>2020-10-08T10:25:23.456Z</time>
      </trkpt>
      <trkpt lat="47.07144" lon="7.13997">
        <ele>432.75</ele>
        <time>2020-10-08T10:25:24.733Z</time>
      </trkpt>
      <trkpt lat="47.07161" lon="7.1401">
        <ele>432.57</ele>
        <time>2020-10-08T10:25:31.626Z</time>
      </trkpt>
      <trkpt lat="47.07203" lon="7.1404">
        <ele>432.62</ele>
        <time>2020-10-08T10:26:20.599Z</time>
      </trkpt>
      <trkpt lat="47.07261" lon="7.14078">
        <ele>432.82</ele>
        <time>2020-10-08T10:27:28.499Z</time>
      </trkpt>
      <trkpt lat="47.07286" lon="7.14095">
        <ele>432.87</ele>
        <time>2020-10-08T10:27:57.587Z</time>
      </trkpt>
      <trkpt lat="47.07353" lon="7.14141">
        <ele>432.78</ele>
        <time>2020-10-08T10:29:12.972Z</time>
      </trkpt>
      <trkpt lat="47.07362" lon="7.14146">
        <ele>432.76</ele>
        <time>2020-10-08T10:29:22.655Z</time>
      </trkpt>
      <trkpt lat="47.0738" lon="7.14159">
        <ele>432.7</ele>
        <time>2020-10-08T10:29:42.569Z</time>
      </trkpt>
      <trkpt lat="47.07429" lon="7.14191">
        <ele>432.68</ele>
        <time>2020-10-08T10:30:37.931Z</time>
      </trkpt>
      <trkpt lat="47.07442" lon="7.14199">
        <ele>432.63</ele>
        <time>2020-10-08T10:30:51.812Z</time>
      </trkpt>
      <trkpt lat="47.07457" lon="7.14209">
        <ele>432.59</ele>
        <time>2020-10-08T10:31:08.302Z</time>
      </trkpt>
      <trkpt lat="47.07478" lon="7.14219">
        <ele>432.77</ele>
        <time>2020-10-08T10:31:33.073Z</time>
      </trkpt>
      <trkpt lat="47.07485" lon="7.14223">
        <ele>432.81</ele>
        <time>2020-10-08T10:31:41.271Z</time>
      </trkpt>
      <trkpt lat="47.07484" lon="7.14223">
        <ele>432.81</ele>
        <time>2020-10-08T10:31:42.309Z</time>
      </trkpt>
      <trkpt lat="47.07487" lon="7.14224">
        <ele>432.85</ele>
        <time>2020-10-08T10:31:45.935Z</time>
      </trkpt>
      <trkpt lat="47.0749" lon="7.14226">
        <ele>432.89</ele>
        <time>2020-10-08T10:31:49.784Z</time>
      </trkpt>
      <trkpt lat="47.0749" lon="7.14226">
        <ele>432.89</ele>
        <time>2020-10-08T10:31:49.784Z</time>
      </trkpt>
      <trkpt lat="47.07493" lon="7.14228">
        <ele>432.9</ele>
        <time>2020-10-08T10:31:53.302Z</time>
      </trkpt>
      <trkpt lat="47.07493" lon="7.14229">
        <ele>432.89</ele>
        <time>2020-10-08T10:31:53.531Z</time>
      </trkpt>
      <trkpt lat="47.07499" lon="7.14233">
        <ele>432.82</ele>
        <time>2020-10-08T10:31:55.862Z</time>
      </trkpt>
      <trkpt lat="47.075" lon="7.14234">
        <ele>432.82</ele>
        <time>2020-10-08T10:31:57.119Z</time>
      </trkpt>
      <trkpt lat="47.075" lon="7.14234">
        <ele>432.82</ele>
        <time>2020-10-08T10:31:57.119Z</time>
      </trkpt>
      <trkpt lat="47.07503" lon="7.14239">
        <ele>433.13</ele>
        <time>2020-10-08T10:32:06.480Z</time>
      </trkpt>
      <trkpt lat="47.07504" lon="7.14241">
        <ele>433.16</ele>
        <time>2020-10-08T10:32:08.576Z</time>
      </trkpt>
      <trkpt lat="47.07505" lon="7.14244">
        <ele>433.21</ele>
        <time>2020-10-08T10:32:11.533Z</time>
      </trkpt>
      <trkpt lat="47.07507" lon="7.14247">
        <ele>433.27</ele>
        <time>2020-10-08T10:32:15.207Z</time>
      </trkpt>
      <trkpt lat="47.07508" lon="7.14255">
        <ele>433.35</ele>
        <time>2020-10-08T10:32:21.835Z</time>
      </trkpt>
      <trkpt lat="47.07508" lon="7.14263">
        <ele>433.2</ele>
        <time>2020-10-08T10:32:23.412Z</time>
      </trkpt>
      <trkpt lat="47.07507" lon="7.14276">
        <ele>433.22</ele>
        <time>2020-10-08T10:32:32.856Z</time>
      </trkpt>
      <trkpt lat="47.07506" lon="7.14284">
        <ele>433.23</ele>
        <time>2020-10-08T10:32:38.704Z</time>
      </trkpt>
      <trkpt lat="47.07507" lon="7.14285">
        <ele>433.22</ele>
        <time>2020-10-08T10:32:39.146Z</time>
      </trkpt>
      <trkpt lat="47.07509" lon="7.14294">
        <ele>433.05</ele>
        <time>2020-10-08T10:32:41.035Z</time>
      </trkpt>
      <trkpt lat="47.07512" lon="7.14311">
        <ele>433</ele>
        <time>2020-10-08T10:32:52.705Z</time>
      </trkpt>
      <trkpt lat="47.07514" lon="7.14322">
        <ele>433.26</ele>
        <time>2020-10-08T10:33:04.324Z</time>
      </trkpt>
      <trkpt lat="47.07515" lon="7.14326">
        <ele>433.28</ele>
        <time>2020-10-08T10:33:07.540Z</time>
      </trkpt>
      <trkpt lat="47.07516" lon="7.14334">
        <ele>433.17</ele>
        <time>2020-10-08T10:33:09.287Z</time>
      </trkpt>
      <trkpt lat="47.07516" lon="7.14342">
        <ele>433.15</ele>
        <time>2020-10-08T10:33:14.643Z</time>
      </trkpt>
      <trkpt lat="47.07516" lon="7.14346">
        <ele>433.17</ele>
        <time>2020-10-08T10:33:17.675Z</time>
      </trkpt>
      <trkpt lat="47.07515" lon="7.1435">
        <ele>433.22</ele>
        <time>2020-10-08T10:33:21.252Z</time>
      </trkpt>
      <trkpt lat="47.07514" lon="7.14357">
        <ele>433.23</ele>
        <time>2020-10-08T10:33:26.407Z</time>
      </trkpt>
      <trkpt lat="47.07514" lon="7.14362">
        <ele>433.25</ele>
        <time>2020-10-08T10:33:30.143Z</time>
      </trkpt>
      <trkpt lat="47.07512" lon="7.14367">
        <ele>433.23</ele>
        <time>2020-10-08T10:33:33.948Z</time>
      </trkpt>
      <trkpt lat="47.07509" lon="7.14382">
        <ele>433.19</ele>
        <time>2020-10-08T10:33:44.400Z</time>
      </trkpt>
      <trkpt lat="47.075" lon="7.14426">
        <ele>431.94</ele>
        <time>2020-10-08T10:33:52.384Z</time>
      </trkpt>
      <trkpt lat="47.075" lon="7.14426">
        <ele>432.58</ele>
        <time>2020-10-08T10:33:52.384Z</time>
      </trkpt>
      <trkpt lat="47.075" lon="7.14426">
        <ele>432.57</ele>
        <time>2020-10-08T10:33:52.384Z</time>
      </trkpt>
      <trkpt lat="47.075" lon="7.14426">
        <ele>431.94</ele>
        <time>2020-10-08T10:33:52.384Z</time>
      </trkpt>
      <trkpt lat="47.07492" lon="7.14456">
        <ele>433.22</ele>
        <time>2020-10-08T10:34:34.519Z</time>
      </trkpt>
      <trkpt lat="47.07487" lon="7.14481">
        <ele>432.98</ele>
        <time>2020-10-08T10:34:40.566Z</time>
      </trkpt>
      <trkpt lat="47.07485" lon="7.14489">
        <ele>432.73</ele>
        <time>2020-10-08T10:34:42.004Z</time>
      </trkpt>
      <trkpt lat="47.07495" lon="7.14478">
        <ele>431.13</ele>
        <time>2020-10-08T10:34:44.780Z</time>
      </trkpt>
      <trkpt lat="47.07549" lon="7.1442">
        <ele>430.65</ele>
        <time>2020-10-08T10:35:47.364Z</time>
      </trkpt>
      <trkpt lat="47.07562" lon="7.14412">
        <ele>430.36</ele>
        <time>2020-10-08T10:35:51.773Z</time>
      </trkpt>
      <trkpt lat="47.07563" lon="7.14409">
        <ele>430.02</ele>
        <time>2020-10-08T10:35:52.278Z</time>
      </trkpt>
      <trkpt lat="47.07563" lon="7.14409">
        <ele>430.02</ele>
        <time>2020-10-08T10:35:52.278Z</time>
      </trkpt>
      <trkpt lat="47.07562" lon="7.14412">
        <ele>430.36</ele>
        <time>2020-10-08T10:36:01.387Z</time>
      </trkpt>
      <trkpt lat="47.07549" lon="7.1442">
        <ele>430.65</ele>
        <time>2020-10-08T10:36:19.420Z</time>
      </trkpt>
      <trkpt lat="47.07495" lon="7.14478">
        <ele>431.13</ele>
        <time>2020-10-08T10:37:33.769Z</time>
      </trkpt>
      <trkpt lat="47.07485" lon="7.14489">
        <ele>432.73</ele>
        <time>2020-10-08T10:38:20.196Z</time>
      </trkpt>
      <trkpt lat="47.07481" lon="7.14504">
        <ele>433.02</ele>
        <time>2020-10-08T10:38:35.225Z</time>
      </trkpt>
      <trkpt lat="47.07467" lon="7.14553">
        <ele>432.91</ele>
        <time>2020-10-08T10:39:11.126Z</time>
      </trkpt>
      <trkpt lat="47.07467" lon="7.14553">
        <ele>432.91</ele>
        <time>2020-10-08T10:39:11.126Z</time>
      </trkpt>
      <trkpt lat="47.07464" lon="7.14563">
        <ele>432.8</ele>
        <time>2020-10-08T10:39:13.622Z</time>
      </trkpt>
      <trkpt lat="47.07443" lon="7.14631">
        <ele>432.78</ele>
        <time>2020-10-08T10:40:06.100Z</time>
      </trkpt>
      <trkpt lat="47.07442" lon="7.14632">
        <ele>432.81</ele>
        <time>2020-10-08T10:40:07.726Z</time>
      </trkpt>
      <trkpt lat="47.07441" lon="7.14636">
        <ele>432.87</ele>
        <time>2020-10-08T10:40:11.442Z</time>
      </trkpt>
      <trkpt lat="47.0744" lon="7.14639">
        <ele>432.85</ele>
        <time>2020-10-08T10:40:12.267Z</time>
      </trkpt>
      <trkpt lat="47.07439" lon="7.1464">
        <ele>432.93</ele>
        <time>2020-10-08T10:40:14.723Z</time>
      </trkpt>
      <trkpt lat="47.07429" lon="7.14648">
        <ele>433.1</ele>
        <time>2020-10-08T10:40:28.419Z</time>
      </trkpt>
      <trkpt lat="47.07423" lon="7.14653">
        <ele>433.2</ele>
        <time>2020-10-08T10:40:36.679Z</time>
      </trkpt>
      <trkpt lat="47.07385" lon="7.14681">
        <ele>433.4</ele>
        <time>2020-10-08T10:41:22.809Z</time>
      </trkpt>
      <trkpt lat="47.07354" lon="7.14702">
        <ele>433.33</ele>
        <time>2020-10-08T10:41:57.175Z</time>
      </trkpt>
      <trkpt lat="47.07339" lon="7.14712">
        <ele>433.26</ele>
        <time>2020-10-08T10:42:13.233Z</time>
      </trkpt>
      <trkpt lat="47.07322" lon="7.14724">
        <ele>433.1</ele>
        <time>2020-10-08T10:42:20.100Z</time>
      </trkpt>
      <trkpt lat="47.07318" lon="7.14727">
        <ele>433.08</ele>
        <time>2020-10-08T10:42:24.466Z</time>
      </trkpt>
      <trkpt lat="47.07316" lon="7.14728">
        <ele>433.08</ele>
        <time>2020-10-08T10:42:26.659Z</time>
      </trkpt>
      <trkpt lat="47.07302" lon="7.14739">
        <ele>432.75</ele>
        <time>2020-10-08T10:42:31.613Z</time>
      </trkpt>
      <trkpt lat="47.07299" lon="7.14741">
        <ele>432.73</ele>
        <time>2020-10-08T10:42:34.743Z</time>
      </trkpt>
      <trkpt lat="47.07295" lon="7.14745">
        <ele>432.94</ele>
        <time>2020-10-08T10:42:43.082Z</time>
      </trkpt>
      <trkpt lat="47.0729" lon="7.14747">
        <ele>432.99</ele>
        <time>2020-10-08T10:42:48.984Z</time>
      </trkpt>
      <trkpt lat="47.07286" lon="7.14748">
        <ele>432.93</ele>
        <time>2020-10-08T10:42:50.345Z</time>
      </trkpt>
      <trkpt lat="47.07284" lon="7.14748">
        <ele>432.98</ele>
        <time>2020-10-08T10:42:53.038Z</time>
      </trkpt>
      <trkpt lat="47.07283" lon="7.14748">
        <ele>432.98</ele>
        <time>2020-10-08T10:42:54.077Z</time>
      </trkpt>
      <trkpt lat="47.07282" lon="7.14748">
        <ele>433.02</ele>
        <time>2020-10-08T10:42:55.715Z</time>
      </trkpt>
      <trkpt lat="47.07281" lon="7.14747">
        <ele>433.02</ele>
        <time>2020-10-08T10:42:56.971Z</time>
      </trkpt>
      <trkpt lat="47.07277" lon="7.14746">
        <ele>432.99</ele>
        <time>2020-10-08T10:42:58.471Z</time>
      </trkpt>
      <trkpt lat="47.07271" lon="7.14744">
        <ele>433.11</ele>
        <time>2020-10-08T10:43:06.248Z</time>
      </trkpt>
      <trkpt lat="47.07267" lon="7.14742">
        <ele>433.19</ele>
        <time>2020-10-08T10:43:11.556Z</time>
      </trkpt>
      <trkpt lat="47.07249" lon="7.14733">
        <ele>433.22</ele>
        <time>2020-10-08T10:43:31.587Z</time>
      </trkpt>
      <trkpt lat="47.07247" lon="7.14731">
        <ele>433.22</ele>
        <time>2020-10-08T10:43:34.100Z</time>
      </trkpt>
      <trkpt lat="47.07227" lon="7.14719">
        <ele>433.01</ele>
        <time>2020-10-08T10:43:41.836Z</time>
      </trkpt>
      <trkpt lat="47.07217" lon="7.14712">
        <ele>433.17</ele>
        <time>2020-10-08T10:43:55.091Z</time>
      </trkpt>
      <trkpt lat="47.07214" lon="7.1471">
        <ele>433.2</ele>
        <time>2020-10-08T10:43:58.823Z</time>
      </trkpt>
      <trkpt lat="47.07197" lon="7.14698">
        <ele>433.34</ele>
        <time>2020-10-08T10:44:19.836Z</time>
      </trkpt>
      <trkpt lat="47.07184" lon="7.14687">
        <ele>433.67</ele>
        <time>2020-10-08T10:44:39.344Z</time>
      </trkpt>
      <trkpt lat="47.07174" lon="7.14678">
        <ele>434.21</ele>
        <time>2020-10-08T10:45:00.098Z</time>
      </trkpt>
      <trkpt lat="47.07167" lon="7.14671">
        <ele>434.74</ele>
        <time>2020-10-08T10:45:16.855Z</time>
      </trkpt>
      <trkpt lat="47.07154" lon="7.14658">
        <ele>434.97</ele>
        <time>2020-10-08T10:45:35.711Z</time>
      </trkpt>
      <trkpt lat="47.07131" lon="7.14633">
        <ele>434.06</ele>
        <time>2020-10-08T10:45:43.626Z</time>
      </trkpt>
      <trkpt lat="47.07108" lon="7.14609">
        <ele>433.54</ele>
        <time>2020-10-08T10:45:52.678Z</time>
      </trkpt>
      <trkpt lat="47.07101" lon="7.14603">
        <ele>433.42</ele>
        <time>2020-10-08T10:45:55.396Z</time>
      </trkpt>
      <trkpt lat="47.07089" lon="7.1459">
        <ele>433.21</ele>
        <time>2020-10-08T10:46:00.442Z</time>
      </trkpt>
      <trkpt lat="47.07088" lon="7.1459">
        <ele>433.21</ele>
        <time>2020-10-08T10:46:01.481Z</time>
      </trkpt>
      <trkpt lat="47.07066" lon="7.14568">
        <ele>433</ele>
        <time>2020-10-08T10:46:11.250Z</time>
      </trkpt>
      <trkpt lat="47.0706" lon="7.14562">
        <ele>432.95</ele>
        <time>2020-10-08T10:46:18.067Z</time>
      </trkpt>
      <trkpt lat="47.07056" lon="7.14558">
        <ele>432.91</ele>
        <time>2020-10-08T10:46:19.835Z</time>
      </trkpt>
      <trkpt lat="47.07053" lon="7.14553">
        <ele>432.87</ele>
        <time>2020-10-08T10:46:21.479Z</time>
      </trkpt>
      <trkpt lat="47.0703" lon="7.14568">
        <ele>431.08</ele>
        <time>2020-10-08T10:46:27.070Z</time>
      </trkpt>
      <trkpt lat="47.07021" lon="7.14574">
        <ele>430.72</ele>
        <time>2020-10-08T10:46:29.680Z</time>
      </trkpt>
      <trkpt lat="47.07018" lon="7.14575">
        <ele>430.34</ele>
        <time>2020-10-08T10:46:30.363Z</time>
      </trkpt>
      <trkpt lat="47.07016" lon="7.14575">
        <ele>430.37</ele>
        <time>2020-10-08T10:46:32.771Z</time>
      </trkpt>
      <trkpt lat="47.07014" lon="7.14573">
        <ele>430.32</ele>
        <time>2020-10-08T10:46:33.527Z</time>
      </trkpt>
      <trkpt lat="47.07012" lon="7.1457">
        <ele>430.56</ele>
        <time>2020-10-08T10:46:40.202Z</time>
      </trkpt>
      <trkpt lat="47.0701" lon="7.14569">
        <ele>430.64</ele>
        <time>2020-10-08T10:46:43.560Z</time>
      </trkpt>
      <trkpt lat="47.07008" lon="7.14569">
        <ele>430.59</ele>
        <time>2020-10-08T10:46:44.155Z</time>
      </trkpt>
      <trkpt lat="47.07" lon="7.14572">
        <ele>430.74</ele>
        <time>2020-10-08T10:46:54.439Z</time>
      </trkpt>
      <trkpt lat="47.06995" lon="7.14571">
        <ele>430.74</ele>
        <time>2020-10-08T10:46:59.678Z</time>
      </trkpt>
      <trkpt lat="47.06979" lon="7.14562">
        <ele>430.9</ele>
        <time>2020-10-08T10:47:19.131Z</time>
      </trkpt>
      <trkpt lat="47.06978" lon="7.14562">
        <ele>430.9</ele>
        <time>2020-10-08T10:47:20.169Z</time>
      </trkpt>
      <trkpt lat="47.06976" lon="7.14561">
        <ele>431.05</ele>
        <time>2020-10-08T10:47:24.617Z</time>
      </trkpt>
      <trkpt lat="47.06955" lon="7.14549">
        <ele>430.57</ele>
        <time>2020-10-08T10:47:31.606Z</time>
      </trkpt>
      <trkpt lat="47.06948" lon="7.14544">
        <ele>430.48</ele>
        <time>2020-10-08T10:47:34.326Z</time>
      </trkpt>
      <trkpt lat="47.06928" lon="7.14532">
        <ele>431.26</ele>
        <time>2020-10-08T10:48:07.841Z</time>
      </trkpt>
      <trkpt lat="47.06924" lon="7.14529">
        <ele>431.58</ele>
        <time>2020-10-08T10:48:17.314Z</time>
      </trkpt>
      <trkpt lat="47.06921" lon="7.14526">
        <ele>432.05</ele>
        <time>2020-10-08T10:48:31.065Z</time>
      </trkpt>
      <trkpt lat="47.0692" lon="7.14521">
        <ele>432.12</ele>
        <time>2020-10-08T10:48:35.562Z</time>
      </trkpt>
      <trkpt lat="47.06919" lon="7.14516">
        <ele>431.79</ele>
        <time>2020-10-08T10:48:36.351Z</time>
      </trkpt>
      <trkpt lat="47.06919" lon="7.14507">
        <ele>431.73</ele>
        <time>2020-10-08T10:48:38.544Z</time>
      </trkpt>
      <trkpt lat="47.06927" lon="7.14496">
        <ele>432.27</ele>
        <time>2020-10-08T10:48:58.347Z</time>
      </trkpt>
      <trkpt lat="47.06931" lon="7.14488">
        <ele>432.39</ele>
        <time>2020-10-08T10:49:06.727Z</time>
      </trkpt>
      <trkpt lat="47.06933" lon="7.14483">
        <ele>432.38</ele>
        <time>2020-10-08T10:49:10.675Z</time>
      </trkpt>
      <trkpt lat="47.06934" lon="7.14479">
        <ele>432.4</ele>
        <time>2020-10-08T10:49:13.891Z</time>
      </trkpt>
      <trkpt lat="47.06934" lon="7.14472">
        <ele>432.67</ele>
        <time>2020-10-08T10:49:22.940Z</time>
      </trkpt>
      <trkpt lat="47.06938" lon="7.14466">
        <ele>432.67</ele>
        <time>2020-10-08T10:49:28.877Z</time>
      </trkpt>
      <trkpt lat="47.06942" lon="7.14456">
        <ele>432.78</ele>
        <time>2020-10-08T10:49:38.277Z</time>
      </trkpt>
      <trkpt lat="47.06945" lon="7.14449">
        <ele>432.83</ele>
        <time>2020-10-08T10:49:44.643Z</time>
      </trkpt>
      <trkpt lat="47.06948" lon="7.1444">
        <ele>432.84</ele>
        <time>2020-10-08T10:49:51.825Z</time>
      </trkpt>
      <trkpt lat="47.06948" lon="7.1444">
        <ele>432.84</ele>
        <time>2020-10-08T10:49:51.825Z</time>
      </trkpt>
      <trkpt lat="47.06959" lon="7.14404">
        <ele>432.84</ele>
        <time>2020-10-08T10:50:19.727Z</time>
      </trkpt>
      <trkpt lat="47.06967" lon="7.14375">
        <ele>433.1</ele>
        <time>2020-10-08T10:50:44.636Z</time>
      </trkpt>
      <trkpt lat="47.06961" lon="7.14366">
        <ele>433.05</ele>
        <time>2020-10-08T10:50:52.812Z</time>
      </trkpt>
      <trkpt lat="47.06958" lon="7.1436">
        <ele>432.99</ele>
        <time>2020-10-08T10:50:54.577Z</time>
      </trkpt>
      <trkpt lat="47.06952" lon="7.14344">
        <ele>433.19</ele>
        <time>2020-10-08T10:51:09.724Z</time>
      </trkpt>
      <trkpt lat="47.06947" lon="7.1433">
        <ele>433.19</ele>
        <time>2020-10-08T10:51:20.902Z</time>
      </trkpt>
      <trkpt lat="47.06942" lon="7.14316">
        <ele>433.22</ele>
        <time>2020-10-08T10:51:32.374Z</time>
      </trkpt>
      <trkpt lat="47.06939" lon="7.14302">
        <ele>433.39</ele>
        <time>2020-10-08T10:51:44.667Z</time>
      </trkpt>
      <trkpt lat="47.06936" lon="7.14292">
        <ele>433.52</ele>
        <time>2020-10-08T10:51:53.866Z</time>
      </trkpt>
      <trkpt lat="47.06936" lon="7.14288">
        <ele>433.5</ele>
        <time>2020-10-08T10:51:54.874Z</time>
      </trkpt>
      <trkpt lat="47.06935" lon="7.14288">
        <ele>433.5</ele>
        <time>2020-10-08T10:51:55.912Z</time>
      </trkpt>
      <trkpt lat="47.06935" lon="7.14282">
        <ele>433.49</ele>
        <time>2020-10-08T10:52:00.002Z</time>
      </trkpt>
      <trkpt lat="47.06934" lon="7.14273">
        <ele>433.48</ele>
        <time>2020-10-08T10:52:06.295Z</time>
      </trkpt>
      <trkpt lat="47.06933" lon="7.14266">
        <ele>433.52</ele>
        <time>2020-10-08T10:52:11.764Z</time>
      </trkpt>
      <trkpt lat="47.06933" lon="7.14264">
        <ele>433.53</ele>
        <time>2020-10-08T10:52:13.280Z</time>
      </trkpt>
      <trkpt lat="47.06934" lon="7.14259">
        <ele>433.55</ele>
        <time>2020-10-08T10:52:17.166Z</time>
      </trkpt>
      <trkpt lat="47.06934" lon="7.14254">
        <ele>433.58</ele>
        <time>2020-10-08T10:52:21.012Z</time>
      </trkpt>
      <trkpt lat="47.06936" lon="7.14239">
        <ele>433.72</ele>
        <time>2020-10-08T10:52:33.339Z</time>
      </trkpt>
      <trkpt lat="47.06937" lon="7.14227">
        <ele>433.86</ele>
        <time>2020-10-08T10:52:43.465Z</time>
      </trkpt>
      <trkpt lat="47.06938" lon="7.14224">
        <ele>433.94</ele>
        <time>2020-10-08T10:52:46.950Z</time>
      </trkpt>
      <trkpt lat="47.06939" lon="7.14218">
        <ele>434.08</ele>
        <time>2020-10-08T10:52:53.233Z</time>
      </trkpt>
      <trkpt lat="47.06937" lon="7.14216">
        <ele>434.02</ele>
        <time>2020-10-08T10:52:53.954Z</time>
      </trkpt>
      <trkpt lat="47.06928" lon="7.14209">
        <ele>433.58</ele>
        <time>2020-10-08T10:52:56.475Z</time>
      </trkpt>
      <trkpt lat="47.06926" lon="7.14206">
        <ele>433.65</ele>
        <time>2020-10-08T10:53:00.302Z</time>
      </trkpt>
      <trkpt lat="47.0692" lon="7.142">
        <ele>433.55</ele>
        <time>2020-10-08T10:53:02.768Z</time>
      </trkpt>
      <trkpt lat="47.06919" lon="7.14198">
        <ele>433.54</ele>
        <time>2020-10-08T10:53:04.377Z</time>
      </trkpt>
      <trkpt lat="47.06916" lon="7.14193">
        <ele>433.54</ele>
        <time>2020-10-08T10:53:09.089Z</time>
      </trkpt>
      <trkpt lat="47.06908" lon="7.14178">
        <ele>433.48</ele>
        <time>2020-10-08T10:53:21.670Z</time>
      </trkpt>
      <trkpt lat="47.06896" lon="7.14156">
        <ele>433.51</ele>
        <time>2020-10-08T10:53:41.891Z</time>
      </trkpt>
      <trkpt lat="47.0689" lon="7.14146">
        <ele>433.53</ele>
        <time>2020-10-08T10:53:51.509Z</time>
      </trkpt>
      <trkpt lat="47.06888" lon="7.14143">
        <ele>433.53</ele>
        <time>2020-10-08T10:53:54.478Z</time>
      </trkpt>
      <trkpt lat="47.06876" lon="7.14117">
        <ele>433.56</ele>
        <time>2020-10-08T10:54:16.976Z</time>
      </trkpt>
      <trkpt lat="47.06866" lon="7.14101">
        <ele>433.84</ele>
        <time>2020-10-08T10:54:35.554Z</time>
      </trkpt>
      <trkpt lat="47.06851" lon="7.1407">
        <ele>434.23</ele>
        <time>2020-10-08T10:55:06.747Z</time>
      </trkpt>
      <trkpt lat="47.06845" lon="7.14057">
        <ele>434.43</ele>
        <time>2020-10-08T10:55:20.148Z</time>
      </trkpt>
      <trkpt lat="47.06842" lon="7.14052">
        <ele>434.44</ele>
        <time>2020-10-08T10:55:24.957Z</time>
      </trkpt>
      <trkpt lat="47.06842" lon="7.14051">
        <ele>434.44</ele>
        <time>2020-10-08T10:55:25.664Z</time>
      </trkpt>
      <trkpt lat="47.06839" lon="7.14044">
        <ele>434.45</ele>
        <time>2020-10-08T10:55:31.609Z</time>
      </trkpt>
      <trkpt lat="47.06835" lon="7.14031">
        <ele>434.55</ele>
        <time>2020-10-08T10:55:42.747Z</time>
      </trkpt>
      <trkpt lat="47.06832" lon="7.14022">
        <ele>434.62</ele>
        <time>2020-10-08T10:55:50.567Z</time>
      </trkpt>
      <trkpt lat="47.06831" lon="7.14018">
        <ele>434.65</ele>
        <time>2020-10-08T10:55:53.896Z</time>
      </trkpt>
      <trkpt lat="47.06827" lon="7.14003">
        <ele>434.52</ele>
        <time>2020-10-08T10:55:57.716Z</time>
      </trkpt>
      <trkpt lat="47.06827" lon="7.14002">
        <ele>434.5</ele>
        <time>2020-10-08T10:55:57.909Z</time>
      </trkpt>
      <trkpt lat="47.06826" lon="7.14001">
        <ele>434.5</ele>
        <time>2020-10-08T10:55:59.165Z</time>
      </trkpt>
      <trkpt lat="47.06822" lon="7.13983">
        <ele>434.41</ele>
        <time>2020-10-08T10:56:11.261Z</time>
      </trkpt>
      <trkpt lat="47.06817" lon="7.13962">
        <ele>433.44</ele>
        <time>2020-10-08T10:56:14.408Z</time>
      </trkpt>
      <trkpt lat="47.06815" lon="7.13951">
        <ele>433.04</ele>
        <time>2020-10-08T10:56:16.190Z</time>
      </trkpt>
      <trkpt lat="47.06813" lon="7.13945">
        <ele>433.02</ele>
        <time>2020-10-08T10:56:20.616Z</time>
      </trkpt>
      <trkpt lat="47.06809" lon="7.13938">
        <ele>432.87</ele>
        <time>2020-10-08T10:56:22.486Z</time>
      </trkpt>
      <trkpt lat="47.06808" lon="7.13934">
        <ele>432.91</ele>
        <time>2020-10-08T10:56:25.934Z</time>
      </trkpt>
      <trkpt lat="47.068" lon="7.13923">
        <ele>432.82</ele>
        <time>2020-10-08T10:56:29.939Z</time>
      </trkpt>
      <trkpt lat="47.068" lon="7.13923">
        <ele>432.82</ele>
        <time>2020-10-08T10:56:29.939Z</time>
      </trkpt>
      <trkpt lat="47.06793" lon="7.13912">
        <ele>432.75</ele>
        <time>2020-10-08T10:56:39.577Z</time>
      </trkpt>
      <trkpt lat="47.06793" lon="7.13912">
        <ele>432.76</ele>
        <time>2020-10-08T10:56:39.577Z</time>
      </trkpt>
      <trkpt lat="47.0679" lon="7.13908">
        <ele>432.91</ele>
        <time>2020-10-08T10:56:45.943Z</time>
      </trkpt>
      <trkpt lat="47.0679" lon="7.13906">
        <ele>432.96</ele>
        <time>2020-10-08T10:56:48.073Z</time>
      </trkpt>
      <trkpt lat="47.06788" lon="7.13904">
        <ele>433.01</ele>
        <time>2020-10-08T10:56:51.172Z</time>
      </trkpt>
      <trkpt lat="47.06785" lon="7.13897">
        <ele>432.9</ele>
        <time>2020-10-08T10:56:52.956Z</time>
      </trkpt>
      <trkpt lat="47.06782" lon="7.13889">
        <ele>432.71</ele>
        <time>2020-10-08T10:56:54.699Z</time>
      </trkpt>
      <trkpt lat="47.0678" lon="7.1388">
        <ele>433.2</ele>
        <time>2020-10-08T10:57:08.808Z</time>
      </trkpt>
      <trkpt lat="47.0678" lon="7.13877">
        <ele>433.26</ele>
        <time>2020-10-08T10:57:11.710Z</time>
      </trkpt>
      <trkpt lat="47.0678" lon="7.13876">
        <ele>433.27</ele>
        <time>2020-10-08T10:57:12.527Z</time>
      </trkpt>
      <trkpt lat="47.06779" lon="7.13872">
        <ele>433.35</ele>
        <time>2020-10-08T10:57:16.558Z</time>
      </trkpt>
      <trkpt lat="47.06779" lon="7.13872">
        <ele>433.35</ele>
        <time>2020-10-08T10:57:16.558Z</time>
      </trkpt>
      <trkpt lat="47.06779" lon="7.13861">
        <ele>433.34</ele>
        <time>2020-10-08T10:57:24.181Z</time>
      </trkpt>
      <trkpt lat="47.0678" lon="7.13854">
        <ele>433.31</ele>
        <time>2020-10-08T10:57:28.803Z</time>
      </trkpt>
      <trkpt lat="47.06782" lon="7.13842">
        <ele>433.29</ele>
        <time>2020-10-08T10:57:37.233Z</time>
      </trkpt>
      <trkpt lat="47.06782" lon="7.13841">
        <ele>433.28</ele>
        <time>2020-10-08T10:57:37.461Z</time>
      </trkpt>
      <trkpt lat="47.06788" lon="7.13823">
        <ele>433.3</ele>
        <time>2020-10-08T10:57:51.826Z</time>
      </trkpt>
      <trkpt lat="47.06787" lon="7.1382">
        <ele>433.05</ele>
        <time>2020-10-08T10:57:52.331Z</time>
      </trkpt>
      <trkpt lat="47.06786" lon="7.13816">
        <ele>432.75</ele>
        <time>2020-10-08T10:57:52.976Z</time>
      </trkpt>
      <trkpt lat="47.06785" lon="7.13813">
        <ele>432.41</ele>
        <time>2020-10-08T10:57:53.481Z</time>
      </trkpt>
      <trkpt lat="47.06783" lon="7.13809">
        <ele>431.89</ele>
        <time>2020-10-08T10:57:54.232Z</time>
      </trkpt>
      <trkpt lat="47.0678" lon="7.13802">
        <ele>431.34</ele>
        <time>2020-10-08T10:57:55.483Z</time>
      </trkpt>
      <trkpt lat="47.06777" lon="7.13795">
        <ele>431.36</ele>
        <time>2020-10-08T10:58:01.529Z</time>
      </trkpt>
      <trkpt lat="47.06777" lon="7.13795">
        <ele>431.36</ele>
        <time>2020-10-08T10:58:01.529Z</time>
      </trkpt>
      <trkpt lat="47.06772" lon="7.13789">
        <ele>431.07</ele>
        <time>2020-10-08T10:58:03.102Z</time>
      </trkpt>
      <trkpt lat="47.06771" lon="7.13787">
        <ele>431.01</ele>
        <time>2020-10-08T10:58:03.553Z</time>
      </trkpt>
      <trkpt lat="47.06762" lon="7.13779">
        <ele>431.04</ele>
        <time>2020-10-08T10:58:14.769Z</time>
      </trkpt>
      <trkpt lat="47.06762" lon="7.13779">
        <ele>431.05</ele>
        <time>2020-10-08T10:58:14.769Z</time>
      </trkpt>
      <trkpt lat="47.06762" lon="7.13778">
        <ele>431.04</ele>
        <time>2020-10-08T10:58:14.998Z</time>
      </trkpt>
      <trkpt lat="47.06754" lon="7.13772">
        <ele>430.89</ele>
        <time>2020-10-08T10:58:17.940Z</time>
      </trkpt>
      <trkpt lat="47.06749" lon="7.13769">
        <ele>430.95</ele>
        <time>2020-10-08T10:58:24.184Z</time>
      </trkpt>
      <trkpt lat="47.06748" lon="7.13768">
        <ele>430.97</ele>
        <time>2020-10-08T10:58:25.664Z</time>
      </trkpt>
      <trkpt lat="47.0674" lon="7.13763">
        <ele>430.94</ele>
        <time>2020-10-08T10:58:34.238Z</time>
      </trkpt>
      <trkpt lat="47.06737" lon="7.13762">
        <ele>430.92</ele>
        <time>2020-10-08T10:58:37.143Z</time>
      </trkpt>
      <trkpt lat="47.06705" lon="7.13743">
        <ele>430.96</ele>
        <time>2020-10-08T10:59:13.365Z</time>
      </trkpt>
      <trkpt lat="47.06699" lon="7.13739">
        <ele>430.98</ele>
        <time>2020-10-08T10:59:20.402Z</time>
      </trkpt>
      <trkpt lat="47.06695" lon="7.13737">
        <ele>431.01</ele>
        <time>2020-10-08T10:59:25.095Z</time>
      </trkpt>
      <trkpt lat="47.06678" lon="7.13729">
        <ele>431.17</ele>
        <time>2020-10-08T10:59:45.287Z</time>
      </trkpt>
      <trkpt lat="47.06669" lon="7.13725">
        <ele>430.92</ele>
        <time>2020-10-08T10:59:48.036Z</time>
      </trkpt>
      <trkpt lat="47.06667" lon="7.13724">
        <ele>430.87</ele>
        <time>2020-10-08T10:59:48.674Z</time>
      </trkpt>
      <trkpt lat="47.06664" lon="7.13723">
        <ele>430.77</ele>
        <time>2020-10-08T10:59:49.518Z</time>
      </trkpt>
      <trkpt lat="47.06663" lon="7.13723">
        <ele>430.79</ele>
        <time>2020-10-08T10:59:50.789Z</time>
      </trkpt>
      <trkpt lat="47.0666" lon="7.13721">
        <ele>430.67</ele>
        <time>2020-10-08T10:59:51.659Z</time>
      </trkpt>
      <trkpt lat="47.0665" lon="7.13717">
        <ele>430.71</ele>
        <time>2020-10-08T11:00:02.815Z</time>
      </trkpt>
      <trkpt lat="47.06642" lon="7.13714">
        <ele>430.84</ele>
        <time>2020-10-08T11:00:12.832Z</time>
      </trkpt>
      <trkpt lat="47.06638" lon="7.13712">
        <ele>430.99</ele>
        <time>2020-10-08T11:00:19.333Z</time>
      </trkpt>
      <trkpt lat="47.06633" lon="7.13709">
        <ele>430.84</ele>
        <time>2020-10-08T11:00:20.892Z</time>
      </trkpt>
      <trkpt lat="47.06628" lon="7.13706">
        <ele>430.7</ele>
        <time>2020-10-08T11:00:22.482Z</time>
      </trkpt>
      <trkpt lat="47.06611" lon="7.13695">
        <ele>430.83</ele>
        <time>2020-10-08T11:00:43.091Z</time>
      </trkpt>
      <trkpt lat="47.06609" lon="7.13694">
        <ele>430.85</ele>
        <time>2020-10-08T11:00:45.493Z</time>
      </trkpt>
      <trkpt lat="47.06591" lon="7.13684">
        <ele>430.98</ele>
        <time>2020-10-08T11:01:06.793Z</time>
      </trkpt>
      <trkpt lat="47.06567" lon="7.13668">
        <ele>430.94</ele>
        <time>2020-10-08T11:01:33.538Z</time>
      </trkpt>
      <trkpt lat="47.06567" lon="7.13668">
        <ele>430.94</ele>
        <time>2020-10-08T11:01:33.538Z</time>
      </trkpt>
      <trkpt lat="47.06552" lon="7.13661">
        <ele>431.01</ele>
        <time>2020-10-08T11:01:50.573Z</time>
      </trkpt>
      <trkpt lat="47.06545" lon="7.13658">
        <ele>431</ele>
        <time>2020-10-08T11:01:57.988Z</time>
      </trkpt>
      <trkpt lat="47.06545" lon="7.13657">
        <ele>431</ele>
        <time>2020-10-08T11:01:58.695Z</time>
      </trkpt>
      <trkpt lat="47.06538" lon="7.13655">
        <ele>430.99</ele>
        <time>2020-10-08T11:02:05.944Z</time>
      </trkpt>
      <trkpt lat="47.06531" lon="7.13651">
        <ele>430.67</ele>
        <time>2020-10-08T11:02:07.814Z</time>
      </trkpt>
      <trkpt lat="47.06523" lon="7.13645">
        <ele>430.81</ele>
        <time>2020-10-08T11:02:18.694Z</time>
      </trkpt>
      <trkpt lat="47.06521" lon="7.13644">
        <ele>430.82</ele>
        <time>2020-10-08T11:02:20.987Z</time>
      </trkpt>
      <trkpt lat="47.06516" lon="7.13638">
        <ele>430.93</ele>
        <time>2020-10-08T11:02:28.931Z</time>
      </trkpt>
      <trkpt lat="47.06511" lon="7.13634">
        <ele>431.02</ele>
        <time>2020-10-08T11:02:35.844Z</time>
      </trkpt>
      <trkpt lat="47.06505" lon="7.13628">
        <ele>430.89</ele>
        <time>2020-10-08T11:02:38.187Z</time>
      </trkpt>
      <trkpt lat="47.06499" lon="7.13621">
        <ele>430.78</ele>
        <time>2020-10-08T11:02:40.772Z</time>
      </trkpt>
      <trkpt lat="47.06494" lon="7.13615">
        <ele>430.71</ele>
        <time>2020-10-08T11:02:43.050Z</time>
      </trkpt>
      <trkpt lat="47.0648" lon="7.13597">
        <ele>430.51</ele>
        <time>2020-10-08T11:02:49.623Z</time>
      </trkpt>
      <trkpt lat="47.06465" lon="7.13577">
        <ele>430.48</ele>
        <time>2020-10-08T11:03:10.195Z</time>
      </trkpt>
      <trkpt lat="47.06456" lon="7.13564">
        <ele>430.31</ele>
        <time>2020-10-08T11:03:14.500Z</time>
      </trkpt>
      <trkpt lat="47.06452" lon="7.13558">
        <ele>430.42</ele>
        <time>2020-10-08T11:03:21.708Z</time>
      </trkpt>
      <trkpt lat="47.06443" lon="7.13547">
        <ele>430.49</ele>
        <time>2020-10-08T11:03:34.571Z</time>
      </trkpt>
      <trkpt lat="47.06411" lon="7.13506">
        <ele>430.38</ele>
        <time>2020-10-08T11:04:16.985Z</time>
      </trkpt>
      <trkpt lat="47.064" lon="7.13491">
        <ele>430.34</ele>
        <time>2020-10-08T11:04:31.961Z</time>
      </trkpt>
      <trkpt lat="47.06383" lon="7.1347">
        <ele>430.19</ele>
        <time>2020-10-08T11:04:52.866Z</time>
      </trkpt>
      <trkpt lat="47.06367" lon="7.1345">
        <ele>430.05</ele>
        <time>2020-10-08T11:05:12.663Z</time>
      </trkpt>
      <trkpt lat="47.0635" lon="7.13432">
        <ele>430.58</ele>
        <time>2020-10-08T11:05:40.985Z</time>
      </trkpt>
      <trkpt lat="47.06343" lon="7.13425">
        <ele>430.71</ele>
        <time>2020-10-08T11:05:51.217Z</time>
      </trkpt>
      <trkpt lat="47.06324" lon="7.13408">
        <ele>430.81</ele>
        <time>2020-10-08T11:06:15.311Z</time>
      </trkpt>
      <trkpt lat="47.0632" lon="7.13404">
        <ele>430.74</ele>
        <time>2020-10-08T11:06:16.941Z</time>
      </trkpt>
      <trkpt lat="47.06317" lon="7.134">
        <ele>430.67</ele>
        <time>2020-10-08T11:06:18.259Z</time>
      </trkpt>
      <trkpt lat="47.06308" lon="7.13389">
        <ele>430.73</ele>
        <time>2020-10-08T11:06:31.016Z</time>
      </trkpt>
      <trkpt lat="47.06307" lon="7.13388">
        <ele>430.73</ele>
        <time>2020-10-08T11:06:32.273Z</time>
      </trkpt>
      <trkpt lat="47.06298" lon="7.13377">
        <ele>430.79</ele>
        <time>2020-10-08T11:06:45.030Z</time>
      </trkpt>
      <trkpt lat="47.06293" lon="7.13371">
        <ele>430.96</ele>
        <time>2020-10-08T11:06:53.865Z</time>
      </trkpt>
      <trkpt lat="47.06286" lon="7.13363">
        <ele>431.07</ele>
        <time>2020-10-08T11:07:04.256Z</time>
      </trkpt>
      <trkpt lat="47.06273" lon="7.13348">
        <ele>431</ele>
        <time>2020-10-08T11:07:20.378Z</time>
      </trkpt>
      <trkpt lat="47.06256" lon="7.13327">
        <ele>430.8</ele>
        <time>2020-10-08T11:07:28.410Z</time>
      </trkpt>
      <trkpt lat="47.06251" lon="7.13321">
        <ele>430.87</ele>
        <time>2020-10-08T11:07:35.854Z</time>
      </trkpt>
      <trkpt lat="47.06248" lon="7.13318">
        <ele>431.08</ele>
        <time>2020-10-08T11:07:42.801Z</time>
      </trkpt>
      <trkpt lat="47.06238" lon="7.13307">
        <ele>431.1</ele>
        <time>2020-10-08T11:07:55.968Z</time>
      </trkpt>
      <trkpt lat="47.06235" lon="7.13304">
        <ele>431.29</ele>
        <time>2020-10-08T11:08:02.660Z</time>
      </trkpt>
      <trkpt lat="47.06232" lon="7.13302">
        <ele>431.28</ele>
        <time>2020-10-08T11:08:05.929Z</time>
      </trkpt>
      <trkpt lat="47.06227" lon="7.13299">
        <ele>431.21</ele>
        <time>2020-10-08T11:08:07.783Z</time>
      </trkpt>
      <trkpt lat="47.06216" lon="7.13293">
        <ele>431.06</ele>
        <time>2020-10-08T11:08:11.820Z</time>
      </trkpt>
      <trkpt lat="47.06197" lon="7.13285">
        <ele>431.68</ele>
        <time>2020-10-08T11:08:40.615Z</time>
      </trkpt>
      <trkpt lat="47.06188" lon="7.13281">
        <ele>432.05</ele>
        <time>2020-10-08T11:08:55.880Z</time>
      </trkpt>
      <trkpt lat="47.06179" lon="7.13277">
        <ele>432.23</ele>
        <time>2020-10-08T11:09:07.718Z</time>
      </trkpt>
      <trkpt lat="47.06177" lon="7.13276">
        <ele>432.23</ele>
        <time>2020-10-08T11:09:09.912Z</time>
      </trkpt>
      <trkpt lat="47.06175" lon="7.13275">
        <ele>432.22</ele>
        <time>2020-10-08T11:09:11.957Z</time>
      </trkpt>
      <trkpt lat="47.06172" lon="7.13271">
        <ele>432.29</ele>
        <time>2020-10-08T11:09:16.956Z</time>
      </trkpt>
      <trkpt lat="47.06157" lon="7.13253">
        <ele>432.72</ele>
        <time>2020-10-08T11:09:42.204Z</time>
      </trkpt>
      <trkpt lat="47.06155" lon="7.13251">
        <ele>432.87</ele>
        <time>2020-10-08T11:09:46.971Z</time>
      </trkpt>
      <trkpt lat="47.06152" lon="7.13249">
        <ele>432.81</ele>
        <time>2020-10-08T11:09:48.031Z</time>
      </trkpt>
      <trkpt lat="47.06149" lon="7.13248">
        <ele>432.85</ele>
        <time>2020-10-08T11:09:51.657Z</time>
      </trkpt>
      <trkpt lat="47.06145" lon="7.13247">
        <ele>432.76</ele>
        <time>2020-10-08T11:09:52.903Z</time>
      </trkpt>
      <trkpt lat="47.06139" lon="7.13248">
        <ele>432.86</ele>
        <time>2020-10-08T11:10:00.293Z</time>
      </trkpt>
      <trkpt lat="47.06075" lon="7.13255">
        <ele>431.91</ele>
        <time>2020-10-08T11:10:21.813Z</time>
      </trkpt>
      <trkpt lat="47.06064" lon="7.13255">
        <ele>432.03</ele>
        <time>2020-10-08T11:10:34.502Z</time>
      </trkpt>
      <trkpt lat="47.06059" lon="7.13255">
        <ele>432.01</ele>
        <time>2020-10-08T11:10:39.393Z</time>
      </trkpt>
      <trkpt lat="47.06055" lon="7.13254">
        <ele>431.81</ele>
        <time>2020-10-08T11:10:40.344Z</time>
      </trkpt>
      <trkpt lat="47.06053" lon="7.13253">
        <ele>431.85</ele>
        <time>2020-10-08T11:10:42.998Z</time>
      </trkpt>
      <trkpt lat="47.06051" lon="7.13252">
        <ele>431.89</ele>
        <time>2020-10-08T11:10:45.652Z</time>
      </trkpt>
      <trkpt lat="47.06047" lon="7.13248">
        <ele>431.69</ele>
        <time>2020-10-08T11:10:46.871Z</time>
      </trkpt>
      <trkpt lat="47.06044" lon="7.13246">
        <ele>431.57</ele>
        <time>2020-10-08T11:10:47.741Z</time>
      </trkpt>
      <trkpt lat="47.06041" lon="7.1324">
        <ele>431.54</ele>
        <time>2020-10-08T11:10:52.568Z</time>
      </trkpt>
      <trkpt lat="47.0604" lon="7.13239">
        <ele>431.53</ele>
        <time>2020-10-08T11:10:53.009Z</time>
      </trkpt>
      <trkpt lat="47.0604" lon="7.13239">
        <ele>431.52</ele>
        <time>2020-10-08T11:10:53.009Z</time>
      </trkpt>
      <trkpt lat="47.06039" lon="7.13233">
        <ele>431.35</ele>
        <time>2020-10-08T11:10:54.079Z</time>
      </trkpt>
      <trkpt lat="47.06039" lon="7.13232">
        <ele>431.31</ele>
        <time>2020-10-08T11:10:54.226Z</time>
      </trkpt>
      <trkpt lat="47.06037" lon="7.13212">
        <ele>430.82</ele>
        <time>2020-10-08T11:10:57.892Z</time>
      </trkpt>
      <trkpt lat="47.06037" lon="7.13211">
        <ele>430.81</ele>
        <time>2020-10-08T11:10:58.121Z</time>
      </trkpt>
      <trkpt lat="47.06036" lon="7.13201">
        <ele>430.67</ele>
        <time>2020-10-08T11:11:00.281Z</time>
      </trkpt>
      <trkpt lat="47.06035" lon="7.13197">
        <ele>430.61</ele>
        <time>2020-10-08T11:11:01.188Z</time>
      </trkpt>
      <trkpt lat="47.06035" lon="7.13192">
        <ele>430.55</ele>
        <time>2020-10-08T11:11:02.291Z</time>
      </trkpt>
      <trkpt lat="47.06034" lon="7.13187">
        <ele>430.5</ele>
        <time>2020-10-08T11:11:03.492Z</time>
      </trkpt>
      <trkpt lat="47.06032" lon="7.13181">
        <ele>430.46</ele>
        <time>2020-10-08T11:11:05.142Z</time>
      </trkpt>
      <trkpt lat="47.06029" lon="7.13168">
        <ele>430.39</ele>
        <time>2020-10-08T11:11:08.593Z</time>
      </trkpt>
      <trkpt lat="47.06024" lon="7.13155">
        <ele>430.3</ele>
        <time>2020-10-08T11:11:12.277Z</time>
      </trkpt>
      <trkpt lat="47.06018" lon="7.13137">
        <ele>430.17</ele>
        <time>2020-10-08T11:11:17.177Z</time>
      </trkpt>
      <trkpt lat="47.06012" lon="7.13116">
        <ele>430.04</ele>
        <time>2020-10-08T11:11:22.833Z</time>
      </trkpt>
      <trkpt lat="47.06005" lon="7.13092">
        <ele>430</ele>
        <time>2020-10-08T11:11:40.683Z</time>
      </trkpt>
      <trkpt lat="47.05999" lon="7.13076">
        <ele>429.72</ele>
        <time>2020-10-08T11:11:44.489Z</time>
      </trkpt>
      <trkpt lat="47.05989" lon="7.13054">
        <ele>429.87</ele>
        <time>2020-10-08T11:12:04.739Z</time>
      </trkpt>
      <trkpt lat="47.05988" lon="7.13052">
        <ele>429.88</ele>
        <time>2020-10-08T11:12:06.595Z</time>
      </trkpt>
      <trkpt lat="47.05967" lon="7.13005">
        <ele>430.03</ele>
        <time>2020-10-08T11:12:47.829Z</time>
      </trkpt>
      <trkpt lat="47.05967" lon="7.13004">
        <ele>430.03</ele>
        <time>2020-10-08T11:12:48.536Z</time>
      </trkpt>
      <trkpt lat="47.0595" lon="7.12965">
        <ele>430</ele>
        <time>2020-10-08T11:13:20.814Z</time>
      </trkpt>
      <trkpt lat="47.05928" lon="7.12916">
        <ele>430.13</ele>
        <time>2020-10-08T11:14:03.595Z</time>
      </trkpt>
      <trkpt lat="47.05907" lon="7.1287">
        <ele>430.1</ele>
        <time>2020-10-08T11:14:42.289Z</time>
      </trkpt>
      <trkpt lat="47.05893" lon="7.12837">
        <ele>430.31</ele>
        <time>2020-10-08T11:15:11.939Z</time>
      </trkpt>
      <trkpt lat="47.05891" lon="7.12831">
        <ele>430.35</ele>
        <time>2020-10-08T11:15:17.078Z</time>
      </trkpt>
      <trkpt lat="47.05887" lon="7.12822">
        <ele>430.26</ele>
        <time>2020-10-08T11:15:19.612Z</time>
      </trkpt>
      <trkpt lat="47.05886" lon="7.12822">
        <ele>430.26</ele>
        <time>2020-10-08T11:15:20.650Z</time>
      </trkpt>
      <trkpt lat="47.0588" lon="7.12809">
        <ele>430.16</ele>
        <time>2020-10-08T11:15:24.499Z</time>
      </trkpt>
      <trkpt lat="47.05861" lon="7.12762">
        <ele>430.35</ele>
        <time>2020-10-08T11:16:05.050Z</time>
      </trkpt>
      <trkpt lat="47.0584" lon="7.12713">
        <ele>430.47</ele>
        <time>2020-10-08T11:16:47.170Z</time>
      </trkpt>
      <trkpt lat="47.05824" lon="7.12674">
        <ele>430.35</ele>
        <time>2020-10-08T11:17:17.568Z</time>
      </trkpt>
      <trkpt lat="47.05792" lon="7.12605">
        <ele>430.47</ele>
        <time>2020-10-08T11:18:17.771Z</time>
      </trkpt>
      <trkpt lat="47.05789" lon="7.12597">
        <ele>430.47</ele>
        <time>2020-10-08T11:18:24.231Z</time>
      </trkpt>
      <trkpt lat="47.05781" lon="7.12579">
        <ele>430.21</ele>
        <time>2020-10-08T11:18:28.965Z</time>
      </trkpt>
      <trkpt lat="47.05762" lon="7.12538">
        <ele>430.35</ele>
        <time>2020-10-08T11:19:05.423Z</time>
      </trkpt>
      <trkpt lat="47.05757" lon="7.12526">
        <ele>430.33</ele>
        <time>2020-10-08T11:19:15.064Z</time>
      </trkpt>
      <trkpt lat="47.05748" lon="7.12509">
        <ele>430.25</ele>
        <time>2020-10-08T11:19:29.117Z</time>
      </trkpt>
      <trkpt lat="47.05732" lon="7.12475">
        <ele>430.12</ele>
        <time>2020-10-08T11:19:56.414Z</time>
      </trkpt>
      <trkpt lat="47.05728" lon="7.12467">
        <ele>430.13</ele>
        <time>2020-10-08T11:20:03.530Z</time>
      </trkpt>
      <trkpt lat="47.05716" lon="7.1244">
        <ele>430.08</ele>
        <time>2020-10-08T11:20:25.564Z</time>
      </trkpt>
      <trkpt lat="47.05715" lon="7.12438">
        <ele>430.07</ele>
        <time>2020-10-08T11:20:27.172Z</time>
      </trkpt>
      <trkpt lat="47.05704" lon="7.12416">
        <ele>429.97</ele>
        <time>2020-10-08T11:20:45.005Z</time>
      </trkpt>
      <trkpt lat="47.05672" lon="7.12354">
        <ele>430.04</ele>
        <time>2020-10-08T11:21:40.697Z</time>
      </trkpt>
      <trkpt lat="47.05665" lon="7.1234">
        <ele>430.01</ele>
        <time>2020-10-08T11:21:52.521Z</time>
      </trkpt>
      <trkpt lat="47.05654" lon="7.12319">
        <ele>429.94</ele>
        <time>2020-10-08T11:22:10.207Z</time>
      </trkpt>
      <trkpt lat="47.05649" lon="7.12308">
        <ele>430</ele>
        <time>2020-10-08T11:22:20.168Z</time>
      </trkpt>
      <trkpt lat="47.05642" lon="7.12294">
        <ele>430.08</ele>
        <time>2020-10-08T11:22:33.262Z</time>
      </trkpt>
      <trkpt lat="47.05634" lon="7.12276">
        <ele>430.16</ele>
        <time>2020-10-08T11:22:49.265Z</time>
      </trkpt>
      <trkpt lat="47.05613" lon="7.12233">
        <ele>430.08</ele>
        <time>2020-10-08T11:23:25.457Z</time>
      </trkpt>
      <trkpt lat="47.05601" lon="7.12208">
        <ele>429.68</ele>
        <time>2020-10-08T11:23:32.080Z</time>
      </trkpt>
      <trkpt lat="47.05593" lon="7.12191">
        <ele>429.99</ele>
        <time>2020-10-08T11:23:50.387Z</time>
      </trkpt>
      <trkpt lat="47.0559" lon="7.12186">
        <ele>430.08</ele>
        <time>2020-10-08T11:23:56.146Z</time>
      </trkpt>
      <trkpt lat="47.05583" lon="7.12169">
        <ele>429.7</ele>
        <time>2020-10-08T11:24:00.038Z</time>
      </trkpt>
      <trkpt lat="47.05575" lon="7.12149">
        <ele>429.85</ele>
        <time>2020-10-08T11:24:18.005Z</time>
      </trkpt>
      <trkpt lat="47.05568" lon="7.12134">
        <ele>429.77</ele>
        <time>2020-10-08T11:24:29.708Z</time>
      </trkpt>
      <trkpt lat="47.05563" lon="7.12123">
        <ele>429.77</ele>
        <time>2020-10-08T11:24:39.062Z</time>
      </trkpt>
      <trkpt lat="47.05561" lon="7.12121">
        <ele>429.82</ele>
        <time>2020-10-08T11:24:42.161Z</time>
      </trkpt>
      <trkpt lat="47.05556" lon="7.12112">
        <ele>429.99</ele>
        <time>2020-10-08T11:24:52.388Z</time>
      </trkpt>
      <trkpt lat="47.05549" lon="7.12098">
        <ele>430.22</ele>
        <time>2020-10-08T11:25:07.333Z</time>
      </trkpt>
      <trkpt lat="47.0553" lon="7.12058">
        <ele>430.2</ele>
        <time>2020-10-08T11:25:41.509Z</time>
      </trkpt>
      <trkpt lat="47.05527" lon="7.12053">
        <ele>430.19</ele>
        <time>2020-10-08T11:25:46.068Z</time>
      </trkpt>
      <trkpt lat="47.05519" lon="7.12037">
        <ele>430.14</ele>
        <time>2020-10-08T11:25:59.353Z</time>
      </trkpt>
      <trkpt lat="47.05505" lon="7.12006">
        <ele>430.19</ele>
        <time>2020-10-08T11:26:26.146Z</time>
      </trkpt>
      <trkpt lat="47.05478" lon="7.11947">
        <ele>430.03</ele>
        <time>2020-10-08T11:27:13.997Z</time>
      </trkpt>
      <trkpt lat="47.05457" lon="7.119">
        <ele>430.07</ele>
        <time>2020-10-08T11:27:54.139Z</time>
      </trkpt>
      <trkpt lat="47.05412" lon="7.11804">
        <ele>430</ele>
        <time>2020-10-08T11:29:15.466Z</time>
      </trkpt>
      <trkpt lat="47.05381" lon="7.11737">
        <ele>430.16</ele>
        <time>2020-10-08T11:30:14.319Z</time>
      </trkpt>
      <trkpt lat="47.05378" lon="7.11731">
        <ele>430.16</ele>
        <time>2020-10-08T11:30:19.583Z</time>
      </trkpt>
      <trkpt lat="47.05351" lon="7.11674">
        <ele>429.94</ele>
        <time>2020-10-08T11:31:05.423Z</time>
      </trkpt>
      <trkpt lat="47.05334" lon="7.11637">
        <ele>429.91</ele>
        <time>2020-10-08T11:31:36.521Z</time>
      </trkpt>
      <trkpt lat="47.05327" lon="7.11623">
        <ele>429.9</ele>
        <time>2020-10-08T11:31:48.648Z</time>
      </trkpt>
      <trkpt lat="47.05314" lon="7.11595">
        <ele>429.91</ele>
        <time>2020-10-08T11:32:12.712Z</time>
      </trkpt>
      <trkpt lat="47.05314" lon="7.11594">
        <ele>429.91</ele>
        <time>2020-10-08T11:32:13.419Z</time>
      </trkpt>
      <trkpt lat="47.05304" lon="7.11574">
        <ele>429.92</ele>
        <time>2020-10-08T11:32:31.063Z</time>
      </trkpt>
      <trkpt lat="47.05278" lon="7.11518">
        <ele>429.77</ele>
        <time>2020-10-08T11:33:16.726Z</time>
      </trkpt>
      <trkpt lat="47.05255" lon="7.11468">
        <ele>429.92</ele>
        <time>2020-10-08T11:34:00.878Z</time>
      </trkpt>
      <trkpt lat="47.05249" lon="7.11454">
        <ele>429.95</ele>
        <time>2020-10-08T11:34:12.870Z</time>
      </trkpt>
      <trkpt lat="47.05232" lon="7.11418">
        <ele>429.97</ele>
        <time>2020-10-08T11:34:44.045Z</time>
      </trkpt>
      <trkpt lat="47.05207" lon="7.11366">
        <ele>430.05</ele>
        <time>2020-10-08T11:35:29.839Z</time>
      </trkpt>
      <trkpt lat="47.05197" lon="7.11343">
        <ele>430.03</ele>
        <time>2020-10-08T11:35:48.826Z</time>
      </trkpt>
      <trkpt lat="47.05185" lon="7.11318">
        <ele>430.01</ele>
        <time>2020-10-08T11:36:10.146Z</time>
      </trkpt>
      <trkpt lat="47.05163" lon="7.11272">
        <ele>429.85</ele>
        <time>2020-10-08T11:36:47.510Z</time>
      </trkpt>
      <trkpt lat="47.05157" lon="7.11258">
        <ele>429.88</ele>
        <time>2020-10-08T11:36:59.502Z</time>
      </trkpt>
      <trkpt lat="47.05152" lon="7.11246">
        <ele>429.92</ele>
        <time>2020-10-08T11:37:09.848Z</time>
      </trkpt>
      <trkpt lat="47.0515" lon="7.11239">
        <ele>429.87</ele>
        <time>2020-10-08T11:37:11.701Z</time>
      </trkpt>
      <trkpt lat="47.05147" lon="7.11227">
        <ele>429.96</ele>
        <time>2020-10-08T11:37:21.689Z</time>
      </trkpt>
      <trkpt lat="47.05145" lon="7.11218">
        <ele>429.92</ele>
        <time>2020-10-08T11:37:27.804Z</time>
      </trkpt>
      <trkpt lat="47.05144" lon="7.11215">
        <ele>429.89</ele>
        <time>2020-10-08T11:37:28.583Z</time>
      </trkpt>
      <trkpt lat="47.05143" lon="7.1121">
        <ele>429.82</ele>
        <time>2020-10-08T11:37:29.705Z</time>
      </trkpt>
      <trkpt lat="47.05139" lon="7.112">
        <ele>429.94</ele>
        <time>2020-10-08T11:37:39.233Z</time>
      </trkpt>
      <trkpt lat="47.05128" lon="7.11177">
        <ele>429.95</ele>
        <time>2020-10-08T11:37:59.207Z</time>
      </trkpt>
      <trkpt lat="47.05115" lon="7.11149">
        <ele>429.98</ele>
        <time>2020-10-08T11:38:23.465Z</time>
      </trkpt>
      <trkpt lat="47.05109" lon="7.11137">
        <ele>429.97</ele>
        <time>2020-10-08T11:38:33.837Z</time>
      </trkpt>
      <trkpt lat="47.05098" lon="7.11112">
        <ele>429.94</ele>
        <time>2020-10-08T11:38:54.423Z</time>
      </trkpt>
      <trkpt lat="47.05078" lon="7.11071">
        <ele>429.94</ele>
        <time>2020-10-08T11:39:30.093Z</time>
      </trkpt>
      <trkpt lat="47.0505" lon="7.11009">
        <ele>429.95</ele>
        <time>2020-10-08T11:40:22.807Z</time>
      </trkpt>
      <trkpt lat="47.05048" lon="7.11006">
        <ele>429.96</ele>
        <time>2020-10-08T11:40:25.875Z</time>
      </trkpt>
      <trkpt lat="47.0503" lon="7.10968">
        <ele>429.95</ele>
        <time>2020-10-08T11:40:58.456Z</time>
      </trkpt>
      <trkpt lat="47.05028" lon="7.10964">
        <ele>429.94</ele>
        <time>2020-10-08T11:41:01.813Z</time>
      </trkpt>
      <trkpt lat="47.05013" lon="7.10932">
        <ele>429.9</ele>
        <time>2020-10-08T11:41:28.668Z</time>
      </trkpt>
      <trkpt lat="47.0501" lon="7.10926">
        <ele>429.9</ele>
        <time>2020-10-08T11:41:33.933Z</time>
      </trkpt>
      <trkpt lat="47.04991" lon="7.10884">
        <ele>429.93</ele>
        <time>2020-10-08T11:42:09.884Z</time>
      </trkpt>
      <trkpt lat="47.04982" lon="7.10867">
        <ele>429.96</ele>
        <time>2020-10-08T11:42:25.405Z</time>
      </trkpt>
      <trkpt lat="47.04966" lon="7.10834">
        <ele>429.98</ele>
        <time>2020-10-08T11:42:54.248Z</time>
      </trkpt>
      <trkpt lat="47.04956" lon="7.10811">
        <ele>429.94</ele>
        <time>2020-10-08T11:43:12.933Z</time>
      </trkpt>
      <trkpt lat="47.0493" lon="7.10755">
        <ele>429.9</ele>
        <time>2020-10-08T11:44:00.244Z</time>
      </trkpt>
      <trkpt lat="47.04919" lon="7.10733">
        <ele>429.96</ele>
        <time>2020-10-08T11:44:20.136Z</time>
      </trkpt>
      <trkpt lat="47.04882" lon="7.10652">
        <ele>430.01</ele>
        <time>2020-10-08T11:45:29.602Z</time>
      </trkpt>
      <trkpt lat="47.04861" lon="7.10608">
        <ele>430.07</ele>
        <time>2020-10-08T11:46:08.184Z</time>
      </trkpt>
      <trkpt lat="47.04859" lon="7.10602">
        <ele>430.08</ele>
        <time>2020-10-08T11:46:13.007Z</time>
      </trkpt>
      <trkpt lat="47.04842" lon="7.10567">
        <ele>430.1</ele>
        <time>2020-10-08T11:46:43.605Z</time>
      </trkpt>
      <trkpt lat="47.04827" lon="7.10535">
        <ele>430.04</ele>
        <time>2020-10-08T11:47:10.160Z</time>
      </trkpt>
      <trkpt lat="47.04814" lon="7.10505">
        <ele>430.18</ele>
        <time>2020-10-08T11:47:36.718Z</time>
      </trkpt>
      <trkpt lat="47.0481" lon="7.10497">
        <ele>430.22</ele>
        <time>2020-10-08T11:47:44.140Z</time>
      </trkpt>
      <trkpt lat="47.04805" lon="7.10485">
        <ele>430.19</ele>
        <time>2020-10-08T11:47:53.635Z</time>
      </trkpt>
      <trkpt lat="47.04792" lon="7.10458">
        <ele>430.14</ele>
        <time>2020-10-08T11:48:16.254Z</time>
      </trkpt>
      <trkpt lat="47.04772" lon="7.10414">
        <ele>430.1</ele>
        <time>2020-10-08T11:48:53.046Z</time>
      </trkpt>
      <trkpt lat="47.04763" lon="7.10395">
        <ele>430.03</ele>
        <time>2020-10-08T11:49:08.374Z</time>
      </trkpt>
      <trkpt lat="47.04762" lon="7.10393">
        <ele>429.97</ele>
        <time>2020-10-08T11:49:08.824Z</time>
      </trkpt>
      <trkpt lat="47.04762" lon="7.10392">
        <ele>429.97</ele>
        <time>2020-10-08T11:49:09.532Z</time>
      </trkpt>
      <trkpt lat="47.04749" lon="7.10363">
        <ele>429.9</ele>
        <time>2020-10-08T11:49:33.024Z</time>
      </trkpt>
      <trkpt lat="47.04747" lon="7.10358">
        <ele>429.9</ele>
        <time>2020-10-08T11:49:37.126Z</time>
      </trkpt>
      <trkpt lat="47.04728" lon="7.10312">
        <ele>430.01</ele>
        <time>2020-10-08T11:50:16.256Z</time>
      </trkpt>
      <trkpt lat="47.04727" lon="7.1031">
        <ele>430.02</ele>
        <time>2020-10-08T11:50:18.112Z</time>
      </trkpt>
      <trkpt lat="47.04711" lon="7.10271">
        <ele>429.96</ele>
        <time>2020-10-08T11:50:49.391Z</time>
      </trkpt>
      <trkpt lat="47.04696" lon="7.1024">
        <ele>429.99</ele>
        <time>2020-10-08T11:51:16.577Z</time>
      </trkpt>
      <trkpt lat="47.04687" lon="7.10221">
        <ele>430.06</ele>
        <time>2020-10-08T11:51:33.641Z</time>
      </trkpt>
      <trkpt lat="47.04681" lon="7.10207">
        <ele>430.04</ele>
        <time>2020-10-08T11:51:45.032Z</time>
      </trkpt>
      <trkpt lat="47.04675" lon="7.10196">
        <ele>429.93</ele>
        <time>2020-10-08T11:51:48.392Z</time>
      </trkpt>
      <trkpt lat="47.0467" lon="7.10182">
        <ele>429.74</ele>
        <time>2020-10-08T11:51:51.880Z</time>
      </trkpt>
      <trkpt lat="47.04665" lon="7.1017">
        <ele>430.37</ele>
        <time>2020-10-08T11:52:11.279Z</time>
      </trkpt>
      <trkpt lat="47.04664" lon="7.10166">
        <ele>430.02</ele>
        <time>2020-10-08T11:52:11.924Z</time>
      </trkpt>
      <trkpt lat="47.04663" lon="7.10165">
        <ele>429.95</ele>
        <time>2020-10-08T11:52:12.188Z</time>
      </trkpt>
      <trkpt lat="47.04662" lon="7.10163">
        <ele>430.01</ele>
        <time>2020-10-08T11:52:14.789Z</time>
      </trkpt>
      <trkpt lat="47.04661" lon="7.10161">
        <ele>431.16</ele>
        <time>2020-10-08T11:52:21.558Z</time>
      </trkpt>
      <trkpt lat="47.0464" lon="7.10126">
        <ele>430.41</ele>
        <time>2020-10-08T11:52:31.159Z</time>
      </trkpt>
      <trkpt lat="47.04636" lon="7.10121">
        <ele>430.27</ele>
        <time>2020-10-08T11:52:32.693Z</time>
      </trkpt>
      <trkpt lat="47.04635" lon="7.10118">
        <ele>430.25</ele>
        <time>2020-10-08T11:52:33.519Z</time>
      </trkpt>
      <trkpt lat="47.04626" lon="7.10099">
        <ele>430.01</ele>
        <time>2020-10-08T11:52:38.778Z</time>
      </trkpt>
      <trkpt lat="47.04611" lon="7.10068">
        <ele>430.02</ele>
        <time>2020-10-08T11:53:05.772Z</time>
      </trkpt>
      <trkpt lat="47.0459" lon="7.10025">
        <ele>430.33</ele>
        <time>2020-10-08T11:53:46.400Z</time>
      </trkpt>
      <trkpt lat="47.04588" lon="7.1002">
        <ele>430.33</ele>
        <time>2020-10-08T11:53:50.502Z</time>
      </trkpt>
      <trkpt lat="47.04579" lon="7.10002">
        <ele>430.34</ele>
        <time>2020-10-08T11:54:06.392Z</time>
      </trkpt>
      <trkpt lat="47.04559" lon="7.09961">
        <ele>430.54</ele>
        <time>2020-10-08T11:54:44.074Z</time>
      </trkpt>
      <trkpt lat="47.04558" lon="7.0996">
        <ele>430.56</ele>
        <time>2020-10-08T11:54:45.555Z</time>
      </trkpt>
      <trkpt lat="47.04539" lon="7.09921">
        <ele>431.02</ele>
        <time>2020-10-08T11:55:24.495Z</time>
      </trkpt>
      <trkpt lat="47.04528" lon="7.099">
        <ele>431.33</ele>
        <time>2020-10-08T11:55:46.733Z</time>
      </trkpt>
      <trkpt lat="47.04522" lon="7.09887">
        <ele>431.58</ele>
        <time>2020-10-08T11:56:00.866Z</time>
      </trkpt>
      <trkpt lat="47.04519" lon="7.09881">
        <ele>432.33</ele>
        <time>2020-10-08T11:56:21.174Z</time>
      </trkpt>
      <trkpt lat="47.04526" lon="7.0988">
        <ele>431.94</ele>
        <time>2020-10-08T11:56:22.738Z</time>
      </trkpt>
      <trkpt lat="47.04541" lon="7.09878">
        <ele>431.51</ele>
        <time>2020-10-08T11:56:27.049Z</time>
      </trkpt>
      <trkpt lat="47.04551" lon="7.09875">
        <ele>431.34</ele>
        <time>2020-10-08T11:56:30.394Z</time>
      </trkpt>
      <trkpt lat="47.04581" lon="7.09864">
        <ele>430.92</ele>
        <time>2020-10-08T11:56:40.923Z</time>
      </trkpt>
      <trkpt lat="47.04589" lon="7.09861">
        <ele>430.76</ele>
        <time>2020-10-08T11:56:43.543Z</time>
      </trkpt>
      <trkpt lat="47.04605" lon="7.09856">
        <ele>430.59</ele>
        <time>2020-10-08T11:56:49.348Z</time>
      </trkpt>
      <trkpt lat="47.04632" lon="7.09847">
        <ele>430.57</ele>
        <time>2020-10-08T11:57:17.780Z</time>
      </trkpt>
      <trkpt lat="47.04639" lon="7.09845">
        <ele>430.75</ele>
        <time>2020-10-08T11:57:27.410Z</time>
      </trkpt>
      <trkpt lat="47.04646" lon="7.09826">
        <ele>430.49</ele>
        <time>2020-10-08T11:57:32.175Z</time>
      </trkpt>
      <trkpt lat="47.04649" lon="7.09818">
        <ele>430.53</ele>
        <time>2020-10-08T11:57:39.040Z</time>
      </trkpt>
      <trkpt lat="47.04649" lon="7.09813">
        <ele>430.67</ele>
        <time>2020-10-08T11:57:44.712Z</time>
      </trkpt>
      <trkpt lat="47.04649" lon="7.098">
        <ele>430.64</ele>
        <time>2020-10-08T11:57:53.455Z</time>
      </trkpt>
      <trkpt lat="47.04648" lon="7.09797">
        <ele>430.61</ele>
        <time>2020-10-08T11:57:54.234Z</time>
      </trkpt>
      <trkpt lat="47.0465" lon="7.09779">
        <ele>430.69</ele>
        <time>2020-10-08T11:58:07.945Z</time>
      </trkpt>
      <trkpt lat="47.04651" lon="7.09768">
        <ele>430.81</ele>
        <time>2020-10-08T11:58:17.131Z</time>
      </trkpt>
      <trkpt lat="47.04652" lon="7.09756">
        <ele>430.68</ele>
        <time>2020-10-08T11:58:19.860Z</time>
      </trkpt>
      <trkpt lat="47.04654" lon="7.09741">
        <ele>430.82</ele>
        <time>2020-10-08T11:58:32.192Z</time>
      </trkpt>
      <trkpt lat="47.04656" lon="7.09725">
        <ele>430.64</ele>
        <time>2020-10-08T11:58:35.843Z</time>
      </trkpt>
      <trkpt lat="47.04657" lon="7.09711">
        <ele>430.51</ele>
        <time>2020-10-08T11:58:39.111Z</time>
      </trkpt>
      <trkpt lat="47.04658" lon="7.09701">
        <ele>430.25</ele>
        <time>2020-10-08T11:58:40.906Z</time>
      </trkpt>
      <trkpt lat="47.0466" lon="7.09693">
        <ele>430.42</ele>
        <time>2020-10-08T11:58:49.143Z</time>
      </trkpt>
      <trkpt lat="47.0466" lon="7.09688">
        <ele>430.44</ele>
        <time>2020-10-08T11:58:52.882Z</time>
      </trkpt>
      <trkpt lat="47.0466" lon="7.0968">
        <ele>430.33</ele>
        <time>2020-10-08T11:58:54.595Z</time>
      </trkpt>
      <trkpt lat="47.04659" lon="7.09669">
        <ele>430.33</ele>
        <time>2020-10-08T11:59:02.446Z</time>
      </trkpt>
      <trkpt lat="47.04656" lon="7.09653">
        <ele>430.23</ele>
        <time>2020-10-08T11:59:06.542Z</time>
      </trkpt>
      <trkpt lat="47.04653" lon="7.09636">
        <ele>430.03</ele>
        <time>2020-10-08T11:59:10.461Z</time>
      </trkpt>
      <trkpt lat="47.04652" lon="7.09624">
        <ele>429.98</ele>
        <time>2020-10-08T11:59:18.286Z</time>
      </trkpt>
      <trkpt lat="47.0465" lon="7.09607">
        <ele>429.77</ele>
        <time>2020-10-08T11:59:22.083Z</time>
      </trkpt>
      <trkpt lat="47.04649" lon="7.09597">
        <ele>430.12</ele>
        <time>2020-10-08T11:59:34.653Z</time>
      </trkpt>
      <trkpt lat="47.04648" lon="7.0959">
        <ele>430.07</ele>
        <time>2020-10-08T11:59:36.386Z</time>
      </trkpt>
      <trkpt lat="47.04647" lon="7.09585">
        <ele>429.85</ele>
        <time>2020-10-08T11:59:37.135Z</time>
      </trkpt>
      <trkpt lat="47.04645" lon="7.09578">
        <ele>430.01</ele>
        <time>2020-10-08T11:59:44.628Z</time>
      </trkpt>
      <trkpt lat="47.04642" lon="7.09568">
        <ele>429.9</ele>
        <time>2020-10-08T11:59:47.126Z</time>
      </trkpt>
      <trkpt lat="47.04632" lon="7.09528">
        <ele>430.15</ele>
        <time>2020-10-08T12:00:19.850Z</time>
      </trkpt>
      <trkpt lat="47.04631" lon="7.09519">
        <ele>430.01</ele>
        <time>2020-10-08T12:00:21.750Z</time>
      </trkpt>
      <trkpt lat="47.04629" lon="7.09507">
        <ele>429.92</ele>
        <time>2020-10-08T12:00:24.726Z</time>
      </trkpt>
      <trkpt lat="47.04628" lon="7.095">
        <ele>429.79</ele>
        <time>2020-10-08T12:00:26.149Z</time>
      </trkpt>
      <trkpt lat="47.04625" lon="7.09492">
        <ele>429.97</ele>
        <time>2020-10-08T12:00:34.938Z</time>
      </trkpt>
      <trkpt lat="47.04623" lon="7.09485">
        <ele>430.11</ele>
        <time>2020-10-08T12:00:42.078Z</time>
      </trkpt>
      <trkpt lat="47.04617" lon="7.09453">
        <ele>429.88</ele>
        <time>2020-10-08T12:00:50.127Z</time>
      </trkpt>
      <trkpt lat="47.04615" lon="7.09442">
        <ele>429.91</ele>
        <time>2020-10-08T12:00:58.478Z</time>
      </trkpt>
      <trkpt lat="47.04613" lon="7.09435">
        <ele>430.01</ele>
        <time>2020-10-08T12:01:05.003Z</time>
      </trkpt>
      <trkpt lat="47.04612" lon="7.09429">
        <ele>429.82</ele>
        <time>2020-10-08T12:01:06.027Z</time>
      </trkpt>
      <trkpt lat="47.04611" lon="7.09415">
        <ele>429.98</ele>
        <time>2020-10-08T12:01:17.782Z</time>
      </trkpt>
      <trkpt lat="47.04603" lon="7.09375">
        <ele>430.02</ele>
        <time>2020-10-08T12:01:47.660Z</time>
      </trkpt>
      <trkpt lat="47.046" lon="7.09356">
        <ele>430.09</ele>
        <time>2020-10-08T12:02:02.157Z</time>
      </trkpt>
      <trkpt lat="47.04596" lon="7.09325">
        <ele>430.86</ele>
        <time>2020-10-08T12:02:35.376Z</time>
      </trkpt>
      <trkpt lat="47.04594" lon="7.09319">
        <ele>430.86</ele>
        <time>2020-10-08T12:02:40.102Z</time>
      </trkpt>
      <trkpt lat="47.04592" lon="7.09318">
        <ele>430.86</ele>
        <time>2020-10-08T12:02:42.295Z</time>
      </trkpt>
      <trkpt lat="47.0456" lon="7.09316">
        <ele>431.11</ele>
        <time>2020-10-08T12:03:18.110Z</time>
      </trkpt>
      <trkpt lat="47.04537" lon="7.09315">
        <ele>431.39</ele>
        <time>2020-10-08T12:03:44.997Z</time>
      </trkpt>
      <trkpt lat="47.04541" lon="7.09295">
        <ele>431.36</ele>
        <time>2020-10-08T12:03:59.281Z</time>
      </trkpt>
      <trkpt lat="47.04558" lon="7.09229">
        <ele>430.95</ele>
        <time>2020-10-08T12:04:16.774Z</time>
      </trkpt>
      <trkpt lat="47.04559" lon="7.0922">
        <ele>430.91</ele>
        <time>2020-10-08T12:04:22.646Z</time>
      </trkpt>
      <trkpt lat="47.0456" lon="7.09211">
        <ele>430.89</ele>
        <time>2020-10-08T12:04:28.794Z</time>
      </trkpt>
      <trkpt lat="47.0456" lon="7.09202">
        <ele>430.77</ele>
        <time>2020-10-08T12:04:30.735Z</time>
      </trkpt>
      <trkpt lat="47.04558" lon="7.09178">
        <ele>430.65</ele>
        <time>2020-10-08T12:04:36.832Z</time>
      </trkpt>
      <trkpt lat="47.04558" lon="7.09166">
        <ele>430.57</ele>
        <time>2020-10-08T12:04:39.758Z</time>
      </trkpt>
      <trkpt lat="47.04558" lon="7.09159">
        <ele>430.56</ele>
        <time>2020-10-08T12:04:44.556Z</time>
      </trkpt>
      <trkpt lat="47.04559" lon="7.09151">
        <ele>430.51</ele>
        <time>2020-10-08T12:04:46.559Z</time>
      </trkpt>
      <trkpt lat="47.04561" lon="7.09143">
        <ele>430.47</ele>
        <time>2020-10-08T12:04:52.012Z</time>
      </trkpt>
      <trkpt lat="47.04563" lon="7.09137">
        <ele>430.39</ele>
        <time>2020-10-08T12:04:53.487Z</time>
      </trkpt>
      <trkpt lat="47.04565" lon="7.0913">
        <ele>430.34</ele>
        <time>2020-10-08T12:04:55.341Z</time>
      </trkpt>
      <trkpt lat="47.04563" lon="7.09108">
        <ele>430.5</ele>
        <time>2020-10-08T12:05:12.728Z</time>
      </trkpt>
      <trkpt lat="47.04557" lon="7.09044">
        <ele>430.43</ele>
        <time>2020-10-08T12:05:57.346Z</time>
      </trkpt>
      <trkpt lat="47.0455" lon="7.08978">
        <ele>430.35</ele>
        <time>2020-10-08T12:06:43.362Z</time>
      </trkpt>
      <trkpt lat="47.04547" lon="7.08939">
        <ele>430.3</ele>
        <time>2020-10-08T12:07:10.355Z</time>
      </trkpt>
      <trkpt lat="47.04544" lon="7.08912">
        <ele>430.51</ele>
        <time>2020-10-08T12:07:31.936Z</time>
      </trkpt>
      <trkpt lat="47.04543" lon="7.08898">
        <ele>430.61</ele>
        <time>2020-10-08T12:07:42.947Z</time>
      </trkpt>
      <trkpt lat="47.04541" lon="7.08874">
        <ele>430.42</ele>
        <time>2020-10-08T12:07:48.707Z</time>
      </trkpt>
      <trkpt lat="47.04539" lon="7.08854">
        <ele>430.64</ele>
        <time>2020-10-08T12:08:05.459Z</time>
      </trkpt>
      <trkpt lat="47.04539" lon="7.0884">
        <ele>430.69</ele>
        <time>2020-10-08T12:08:15.863Z</time>
      </trkpt>
      <trkpt lat="47.04541" lon="7.08827">
        <ele>430.86</ele>
        <time>2020-10-08T12:08:27.243Z</time>
      </trkpt>
      <trkpt lat="47.04544" lon="7.08815">
        <ele>430.78</ele>
        <time>2020-10-08T12:08:30.384Z</time>
      </trkpt>
      <trkpt lat="47.0455" lon="7.088">
        <ele>430.84</ele>
        <time>2020-10-08T12:08:43.288Z</time>
      </trkpt>
      <trkpt lat="47.0456" lon="7.08779">
        <ele>430.8</ele>
        <time>2020-10-08T12:09:00.798Z</time>
      </trkpt>
      <trkpt lat="47.04566" lon="7.08767">
        <ele>430.75</ele>
        <time>2020-10-08T12:09:10.588Z</time>
      </trkpt>
      <trkpt lat="47.04569" lon="7.08758">
        <ele>430.61</ele>
        <time>2020-10-08T12:09:12.726Z</time>
      </trkpt>
      <trkpt lat="47.0457" lon="7.08751">
        <ele>430.74</ele>
        <time>2020-10-08T12:09:19.422Z</time>
      </trkpt>
      <trkpt lat="47.04572" lon="7.08736">
        <ele>430.83</ele>
        <time>2020-10-08T12:09:31.164Z</time>
      </trkpt>
      <trkpt lat="47.04573" lon="7.08715">
        <ele>430.79</ele>
        <time>2020-10-08T12:09:45.447Z</time>
      </trkpt>
      <trkpt lat="47.04574" lon="7.0869">
        <ele>430.82</ele>
        <time>2020-10-08T12:10:03.455Z</time>
      </trkpt>
      <trkpt lat="47.04573" lon="7.08676">
        <ele>430.91</ele>
        <time>2020-10-08T12:10:14.350Z</time>
      </trkpt>
      <trkpt lat="47.04572" lon="7.08668">
        <ele>430.83</ele>
        <time>2020-10-08T12:10:16.217Z</time>
      </trkpt>
      <trkpt lat="47.0457" lon="7.08661">
        <ele>430.97</ele>
        <time>2020-10-08T12:10:23.357Z</time>
      </trkpt>
      <trkpt lat="47.04564" lon="7.08651">
        <ele>430.75</ele>
        <time>2020-10-08T12:10:26.081Z</time>
      </trkpt>
      <trkpt lat="47.04562" lon="7.08645">
        <ele>430.85</ele>
        <time>2020-10-08T12:10:31.997Z</time>
      </trkpt>
      <trkpt lat="47.04562" lon="7.08638">
        <ele>430.7</ele>
        <time>2020-10-08T12:10:33.321Z</time>
      </trkpt>
      <trkpt lat="47.04563" lon="7.08632">
        <ele>430.51</ele>
        <time>2020-10-08T12:10:34.345Z</time>
      </trkpt>
      <trkpt lat="47.04565" lon="7.08621">
        <ele>430.32</ele>
        <time>2020-10-08T12:10:36.665Z</time>
      </trkpt>
      <trkpt lat="47.04568" lon="7.08607">
        <ele>430.16</ele>
        <time>2020-10-08T12:10:39.969Z</time>
      </trkpt>
      <trkpt lat="47.0457" lon="7.08591">
        <ele>430.31</ele>
        <time>2020-10-08T12:10:53.106Z</time>
      </trkpt>
      <trkpt lat="47.04573" lon="7.08581">
        <ele>430.21</ele>
        <time>2020-10-08T12:10:55.646Z</time>
      </trkpt>
      <trkpt lat="47.04577" lon="7.08572">
        <ele>430.31</ele>
        <time>2020-10-08T12:11:04.335Z</time>
      </trkpt>
      <trkpt lat="47.04581" lon="7.08565">
        <ele>430.41</ele>
        <time>2020-10-08T12:11:11.913Z</time>
      </trkpt>
      <trkpt lat="47.04589" lon="7.08555">
        <ele>430.14</ele>
        <time>2020-10-08T12:11:15.015Z</time>
      </trkpt>
      <trkpt lat="47.04596" lon="7.08545">
        <ele>429.88</ele>
        <time>2020-10-08T12:11:17.870Z</time>
      </trkpt>
      <trkpt lat="47.04601" lon="7.08537">
        <ele>429.85</ele>
        <time>2020-10-08T12:11:25.101Z</time>
      </trkpt>
      <trkpt lat="47.04605" lon="7.08522">
        <ele>429.94</ele>
        <time>2020-10-08T12:11:37.422Z</time>
      </trkpt>
      <trkpt lat="47.04608" lon="7.08512">
        <ele>430.08</ele>
        <time>2020-10-08T12:11:46.760Z</time>
      </trkpt>
      <trkpt lat="47.04609" lon="7.08502">
        <ele>429.74</ele>
        <time>2020-10-08T12:11:48.373Z</time>
      </trkpt>
      <trkpt lat="47.04609" lon="7.08497">
        <ele>429.85</ele>
        <time>2020-10-08T12:11:53.396Z</time>
      </trkpt>
      <trkpt lat="47.04608" lon="7.08493">
        <ele>429.66</ele>
        <time>2020-10-08T12:11:53.992Z</time>
      </trkpt>
      <trkpt lat="47.04603" lon="7.08488">
        <ele>429.74</ele>
        <time>2020-10-08T12:12:01.140Z</time>
      </trkpt>
      <trkpt lat="47.04594" lon="7.08482">
        <ele>429.9</ele>
        <time>2020-10-08T12:12:13.189Z</time>
      </trkpt>
      <trkpt lat="47.0459" lon="7.08479">
        <ele>429.79</ele>
        <time>2020-10-08T12:12:14.533Z</time>
      </trkpt>
      <trkpt lat="47.04581" lon="7.08459">
        <ele>430.06</ele>
        <time>2020-10-08T12:12:34.515Z</time>
      </trkpt>
      <trkpt lat="47.04574" lon="7.08443">
        <ele>429.78</ele>
        <time>2020-10-08T12:12:38.519Z</time>
      </trkpt>
      <trkpt lat="47.0457" lon="7.08433">
        <ele>429.93</ele>
        <time>2020-10-08T12:12:48.450Z</time>
      </trkpt>
      <trkpt lat="47.04568" lon="7.0842">
        <ele>429.78</ele>
        <time>2020-10-08T12:12:51.431Z</time>
      </trkpt>
      <trkpt lat="47.04564" lon="7.08398">
        <ele>429.66</ele>
        <time>2020-10-08T12:12:57.138Z</time>
      </trkpt>
      <trkpt lat="47.0456" lon="7.08382">
        <ele>429.61</ele>
        <time>2020-10-08T12:13:08.449Z</time>
      </trkpt>
      <trkpt lat="47.04555" lon="7.08364">
        <ele>430.07</ele>
        <time>2020-10-08T12:13:28.616Z</time>
      </trkpt>
      <trkpt lat="47.04549" lon="7.08346">
        <ele>430.15</ele>
        <time>2020-10-08T12:13:43.597Z</time>
      </trkpt>
      <trkpt lat="47.04543" lon="7.08327">
        <ele>430.12</ele>
        <time>2020-10-08T12:13:57.950Z</time>
      </trkpt>
      <trkpt lat="47.04525" lon="7.08273">
        <ele>430.14</ele>
        <time>2020-10-08T12:14:40.671Z</time>
      </trkpt>
      <trkpt lat="47.04516" lon="7.08249">
        <ele>430.19</ele>
        <time>2020-10-08T12:15:00.539Z</time>
      </trkpt>
      <trkpt lat="47.04508" lon="7.08227">
        <ele>430.24</ele>
        <time>2020-10-08T12:15:18.670Z</time>
      </trkpt>
      <trkpt lat="47.04499" lon="7.08205">
        <ele>430.46</ele>
        <time>2020-10-08T12:15:39.189Z</time>
      </trkpt>
      <trkpt lat="47.04484" lon="7.08164">
        <ele>430.79</ele>
        <time>2020-10-08T12:16:15.581Z</time>
      </trkpt>
      <trkpt lat="47.04479" lon="7.08151">
        <ele>430.69</ele>
        <time>2020-10-08T12:16:19.217Z</time>
      </trkpt>
      <trkpt lat="47.04475" lon="7.08141">
        <ele>430.73</ele>
        <time>2020-10-08T12:16:27.820Z</time>
      </trkpt>
      <trkpt lat="47.04472" lon="7.08135">
        <ele>431.04</ele>
        <time>2020-10-08T12:16:37.750Z</time>
      </trkpt>
      <trkpt lat="47.0447" lon="7.08128">
        <ele>431.11</ele>
        <time>2020-10-08T12:16:43.880Z</time>
      </trkpt>
      <trkpt lat="47.04475" lon="7.08123">
        <ele>431.23</ele>
        <time>2020-10-08T12:16:51.557Z</time>
      </trkpt>
      <trkpt lat="47.0448" lon="7.08117">
        <ele>431.14</ele>
        <time>2020-10-08T12:16:53.746Z</time>
      </trkpt>
      <trkpt lat="47.04486" lon="7.08107">
        <ele>431.08</ele>
        <time>2020-10-08T12:17:02.306Z</time>
      </trkpt>
      <trkpt lat="47.04495" lon="7.08092">
        <ele>430.97</ele>
        <time>2020-10-08T12:17:07.292Z</time>
      </trkpt>
      <trkpt lat="47.04532" lon="7.08032">
        <ele>431.05</ele>
        <time>2020-10-08T12:18:05.313Z</time>
      </trkpt>
      <trkpt lat="47.04551" lon="7.08">
        <ele>430.83</ele>
        <time>2020-10-08T12:18:15.969Z</time>
      </trkpt>
      <trkpt lat="47.04567" lon="7.07975">
        <ele>430.98</ele>
        <time>2020-10-08T12:18:41.749Z</time>
      </trkpt>
      <trkpt lat="47.046" lon="7.07922">
        <ele>430.85</ele>
        <time>2020-10-08T12:19:30.554Z</time>
      </trkpt>
      <trkpt lat="47.04608" lon="7.07907">
        <ele>430.75</ele>
        <time>2020-10-08T12:19:35.330Z</time>
      </trkpt>
      <trkpt lat="47.04607" lon="7.079">
        <ele>430.74</ele>
        <time>2020-10-08T12:19:40.236Z</time>
      </trkpt>
      <trkpt lat="47.04605" lon="7.07895">
        <ele>430.73</ele>
        <time>2020-10-08T12:19:44.184Z</time>
      </trkpt>
      <trkpt lat="47.04602" lon="7.07886">
        <ele>430.41</ele>
        <time>2020-10-08T12:19:45.819Z</time>
      </trkpt>
      <trkpt lat="47.04593" lon="7.07868">
        <ele>430.68</ele>
        <time>2020-10-08T12:20:04.680Z</time>
      </trkpt>
      <trkpt lat="47.04577" lon="7.07836">
        <ele>430.37</ele>
        <time>2020-10-08T12:20:14.144Z</time>
      </trkpt>
      <trkpt lat="47.04524" lon="7.07732">
        <ele>430.73</ele>
        <time>2020-10-08T12:21:49.578Z</time>
      </trkpt>
      <trkpt lat="47.04492" lon="7.07671">
        <ele>431.09</ele>
        <time>2020-10-08T12:22:47.695Z</time>
      </trkpt>
      <trkpt lat="47.04455" lon="7.07598">
        <ele>431.23</ele>
        <time>2020-10-08T12:23:53.421Z</time>
      </trkpt>
      <trkpt lat="47.04438" lon="7.07564">
        <ele>431.29</ele>
        <time>2020-10-08T12:24:23.838Z</time>
      </trkpt>
      <trkpt lat="47.04426" lon="7.0754">
        <ele>431.72</ele>
        <time>2020-10-08T12:24:49.973Z</time>
      </trkpt>
      <trkpt lat="47.04418" lon="7.07525">
        <ele>431.52</ele>
        <time>2020-10-08T12:24:54.293Z</time>
      </trkpt>
      <trkpt lat="47.04407" lon="7.07502">
        <ele>431.47</ele>
        <time>2020-10-08T12:25:13.408Z</time>
      </trkpt>
      <trkpt lat="47.04398" lon="7.07484">
        <ele>431.47</ele>
        <time>2020-10-08T12:25:29.204Z</time>
      </trkpt>
      <trkpt lat="47.04382" lon="7.07449">
        <ele>431.37</ele>
        <time>2020-10-08T12:25:57.512Z</time>
      </trkpt>
      <trkpt lat="47.04355" lon="7.07391">
        <ele>431.45</ele>
        <time>2020-10-08T12:26:47.980Z</time>
      </trkpt>
      <trkpt lat="47.04354" lon="7.07391">
        <ele>431.45</ele>
        <time>2020-10-08T12:26:49.019Z</time>
      </trkpt>
      <trkpt lat="47.04351" lon="7.07384">
        <ele>431.52</ele>
        <time>2020-10-08T12:26:55.620Z</time>
      </trkpt>
      <trkpt lat="47.04313" lon="7.07301">
        <ele>431.14</ele>
        <time>2020-10-08T12:28:00.797Z</time>
      </trkpt>
      <trkpt lat="47.04293" lon="7.07258">
        <ele>431.09</ele>
        <time>2020-10-08T12:28:36.852Z</time>
      </trkpt>
      <trkpt lat="47.04261" lon="7.0719">
        <ele>431.41</ele>
        <time>2020-10-08T12:29:38.530Z</time>
      </trkpt>
      <trkpt lat="47.04253" lon="7.07174">
        <ele>431.24</ele>
        <time>2020-10-08T12:29:43.195Z</time>
      </trkpt>
      <trkpt lat="47.0424" lon="7.07151">
        <ele>431.56</ele>
        <time>2020-10-08T12:30:07.891Z</time>
      </trkpt>
      <trkpt lat="47.04232" lon="7.07136">
        <ele>431.7</ele>
        <time>2020-10-08T12:30:22.845Z</time>
      </trkpt>
      <trkpt lat="47.04226" lon="7.07128">
        <ele>431.81</ele>
        <time>2020-10-08T12:30:32.457Z</time>
      </trkpt>
      <trkpt lat="47.04225" lon="7.07124">
        <ele>431.81</ele>
        <time>2020-10-08T12:30:35.471Z</time>
      </trkpt>
      <trkpt lat="47.04225" lon="7.0712">
        <ele>432.04</ele>
        <time>2020-10-08T12:30:41.859Z</time>
      </trkpt>
      <trkpt lat="47.04226" lon="7.07116">
        <ele>432.21</ele>
        <time>2020-10-08T12:30:47.442Z</time>
      </trkpt>
      <trkpt lat="47.0423" lon="7.07113">
        <ele>432.11</ele>
        <time>2020-10-08T12:30:48.820Z</time>
      </trkpt>
      <trkpt lat="47.04236" lon="7.07109">
        <ele>431.02</ele>
        <time>2020-10-08T12:30:50.284Z</time>
      </trkpt>
      <trkpt lat="47.04242" lon="7.07103">
        <ele>432.15</ele>
        <time>2020-10-08T12:31:19.361Z</time>
      </trkpt>
      <trkpt lat="47.04243" lon="7.071">
        <ele>431.87</ele>
        <time>2020-10-08T12:31:19.866Z</time>
      </trkpt>
      <trkpt lat="47.04243" lon="7.07099">
        <ele>431.87</ele>
        <time>2020-10-08T12:31:20.574Z</time>
      </trkpt>
      <trkpt lat="47.04241" lon="7.07095">
        <ele>431.87</ele>
        <time>2020-10-08T12:31:24.084Z</time>
      </trkpt>
      <trkpt lat="47.04254" lon="7.07082">
        <ele>431.81</ele>
        <time>2020-10-08T12:31:39.515Z</time>
      </trkpt>
      <trkpt lat="47.04252" lon="7.07076">
        <ele>431.94</ele>
        <time>2020-10-08T12:31:45.915Z</time>
      </trkpt>
      <trkpt lat="47.04257" lon="7.07071">
        <ele>431.82</ele>
        <time>2020-10-08T12:31:47.824Z</time>
      </trkpt>
      <trkpt lat="47.04267" lon="7.07061">
        <ele>431.63</ele>
        <time>2020-10-08T12:31:51.837Z</time>
      </trkpt>
      <trkpt lat="47.04291" lon="7.07033">
        <ele>431.57</ele>
        <time>2020-10-08T12:32:22.744Z</time>
      </trkpt>
      <trkpt lat="47.043" lon="7.07022">
        <ele>431.47</ele>
        <time>2020-10-08T12:32:27.005Z</time>
      </trkpt>
      <trkpt lat="47.04311" lon="7.07009">
        <ele>431.13</ele>
        <time>2020-10-08T12:32:31.249Z</time>
      </trkpt>
      <trkpt lat="47.04323" lon="7.06993">
        <ele>431.43</ele>
        <time>2020-10-08T12:32:51.518Z</time>
      </trkpt>
      <trkpt lat="47.04346" lon="7.06962">
        <ele>431.83</ele>
        <time>2020-10-08T12:33:28.251Z</time>
      </trkpt>
      <trkpt lat="47.04349" lon="7.06969">
        <ele>431.79</ele>
        <time>2020-10-08T12:33:33.528Z</time>
      </trkpt>
      <trkpt lat="47.04327" lon="7.06997">
        <ele>431.6</ele>
        <time>2020-10-08T12:34:01.015Z</time>
      </trkpt>
      <trkpt lat="47.04327" lon="7.06998">
        <ele>431.6</ele>
        <time>2020-10-08T12:34:01.722Z</time>
      </trkpt>
      <trkpt lat="47.04349" lon="7.06969">
        <ele>431.79</ele>
        <time>2020-10-08T12:34:34.346Z</time>
      </trkpt>
      <trkpt lat="47.04361" lon="7.06951">
        <ele>431.77</ele>
        <time>2020-10-08T12:34:51.849Z</time>
      </trkpt>
      <trkpt lat="47.04373" lon="7.06935">
        <ele>432.55</ele>
        <time>2020-10-08T12:35:20.923Z</time>
      </trkpt>
      <trkpt lat="47.04389" lon="7.06913">
        <ele>432.91</ele>
        <time>2020-10-08T12:35:47.717Z</time>
      </trkpt>
      <trkpt lat="47.04399" lon="7.06899">
        <ele>433.53</ele>
        <time>2020-10-08T12:36:11.990Z</time>
      </trkpt>
      <trkpt lat="47.04419" lon="7.06871">
        <ele>434.15</ele>
        <time>2020-10-08T12:36:48.109Z</time>
      </trkpt>
      <trkpt lat="47.04438" lon="7.06845">
        <ele>434.72</ele>
        <time>2020-10-08T12:37:21.866Z</time>
      </trkpt>
      <trkpt lat="47.04477" lon="7.06792">
        <ele>436.14</ele>
        <time>2020-10-08T12:38:34.932Z</time>
      </trkpt>
      <trkpt lat="47.04483" lon="7.06784">
        <ele>436.54</ele>
        <time>2020-10-08T12:38:49.586Z</time>
      </trkpt>
      <trkpt lat="47.04483" lon="7.06784">
        <ele>436.54</ele>
        <time>2020-10-08T12:38:49.586Z</time>
      </trkpt>
      <trkpt lat="47.04515" lon="7.0674">
        <ele>436.94</ele>
        <time>2020-10-08T12:39:39.265Z</time>
      </trkpt>
      <trkpt lat="47.0453" lon="7.06719">
        <ele>437.44</ele>
        <time>2020-10-08T12:40:06.892Z</time>
      </trkpt>
      <trkpt lat="47.04562" lon="7.06675">
        <ele>437.18</ele>
        <time>2020-10-08T12:40:48.629Z</time>
      </trkpt>
      <trkpt lat="47.04618" lon="7.06598">
        <ele>436.93</ele>
        <time>2020-10-08T12:42:04.515Z</time>
      </trkpt>
      <trkpt lat="47.04631" lon="7.06582">
        <ele>436.33</ele>
        <time>2020-10-08T12:42:09.042Z</time>
      </trkpt>
      <trkpt lat="47.04655" lon="7.06548">
        <ele>435.4</ele>
        <time>2020-10-08T12:42:18.657Z</time>
      </trkpt>
      <trkpt lat="47.04655" lon="7.06547">
        <ele>433.61</ele>
        <time>2020-10-08T12:42:18.809Z</time>
      </trkpt>
      <trkpt lat="47.04655" lon="7.06548">
        <ele>433.61</ele>
        <time>2020-10-08T12:42:19.516Z</time>
      </trkpt>
      <trkpt lat="47.04742" lon="7.06428">
        <ele>433.61</ele>
        <time>2020-10-08T12:44:23.476Z</time>
      </trkpt>
      <trkpt lat="47.04752" lon="7.06415">
        <ele>431.82</ele>
        <time>2020-10-08T12:44:26.444Z</time>
      </trkpt>
      <trkpt lat="47.04781" lon="7.06441">
        <ele>431.48</ele>
        <time>2020-10-08T12:44:38.565Z</time>
      </trkpt>
      <trkpt lat="47.04789" lon="7.06449">
        <ele>431.48</ele>
        <time>2020-10-08T12:44:48.616Z</time>
      </trkpt>
      <trkpt lat="47.04803" lon="7.06463">
        <ele>431.66</ele>
        <time>2020-10-08T12:45:08.101Z</time>
      </trkpt>
      <trkpt lat="47.0482" lon="7.06479">
        <ele>431.79</ele>
        <time>2020-10-08T12:45:30.383Z</time>
      </trkpt>
      <trkpt lat="47.04833" lon="7.06488">
        <ele>431.88</ele>
        <time>2020-10-08T12:45:46.214Z</time>
      </trkpt>
      <trkpt lat="47.04844" lon="7.06494">
        <ele>431.89</ele>
        <time>2020-10-08T12:45:58.494Z</time>
      </trkpt>
      <trkpt lat="47.04853" lon="7.06498">
        <ele>431.95</ele>
        <time>2020-10-08T12:46:08.863Z</time>
      </trkpt>
      <trkpt lat="47.04855" lon="7.06499">
        <ele>431.96</ele>
        <time>2020-10-08T12:46:11.157Z</time>
      </trkpt>
      <trkpt lat="47.04855" lon="7.06498">
        <ele>431.96</ele>
        <time>2020-10-08T12:46:11.864Z</time>
      </trkpt>
      <trkpt lat="47.04862" lon="7.06501">
        <ele>431.98</ele>
        <time>2020-10-08T12:46:19.630Z</time>
      </trkpt>
      <trkpt lat="47.04851" lon="7.06461">
        <ele>431.5</ele>
        <time>2020-10-08T12:46:29.301Z</time>
      </trkpt>
      <trkpt lat="47.04843" lon="7.06426">
        <ele>431.33</ele>
        <time>2020-10-08T12:46:52.967Z</time>
      </trkpt>
    </trkseg>
  </trk>
</gpx>